<?xml version="1.0" encoding="UTF-8" standalone="no" ?>
<gpx xmlns="http://www.topografix.com/GPX/1/1" xmlns:xsi="http://www.w3.org/2001/XMLSchema-instance" xsi:schemaLocation="http://www.topografix.com/GPX/1/1 http://www.topografix.com/GPX/1/1/gpx.xsd" version="1.1" creator="VisuGPX - https://www.visugpx.com">
  <metadata>
    <name>Cagne Maxime </name>
    <desc><![CDATA[Accès au Canyon de la cagne par itinéraire normal]]></desc>
  </metadata>
  <wpt lat="43.75763" lon="7.11667">
    <ele>404.51</ele>
    <name><![CDATA[barrière 2]]></name>
    <desc><![CDATA[]]></desc>
    <type><![CDATA[Point de navigation]]></type>
  </wpt>
  <wpt lat="43.75641" lon="7.11795">
    <ele>412.55</ele>
    <name><![CDATA[accès ?]]></name>
    <desc><![CDATA[]]></desc>
    <type><![CDATA[Point de navigation]]></type>
  </wpt>
  <wpt lat="43.7552" lon="7.12079">
    <ele>417.05</ele>
    <name><![CDATA[accès ??]]></name>
    <desc><![CDATA[]]></desc>
    <type><![CDATA[Point de navigation]]></type>
  </wpt>
  <wpt lat="43.72861" lon="7.11782">
    <ele>335.06</ele>
    <name><![CDATA[panorama]]></name>
    <desc><![CDATA[]]></desc>
    <type><![CDATA[Point de navigation]]></type>
  </wpt>
  <trk>
    <name><![CDATA[cagne 2016-10-08 16:54]]></name>
    <desc><![CDATA[<h1>OruxMaps</h1><br /><hr align="center" width="480" style="height: 2px; width: 517px"/><h2>Nom: cagne 2016-10-08 16:54</h2><br /><p>Temps de départ: 10/08/2016 16:54</p><p>Temps d'arrivée: 10/08/2016 19:06</p><p>Distance: 28km (02:12)</p><p>Temps déplacement: 01:24</p><p>Vitesse moyenne: 12,7km/h</p><p>Vitesse moyenne: 19,9km/h</p><p>Vitess Max.: 69,6km/h</p><p>Altitude minimale: -39m</p><p>Altitude maximale: 535m</p><p>Vitesse d'élévation: 645,6m/h</p><p>Vitesse de descente: -836,7m/h</p><p>Gain Altitude: 524m</p><p>Perte Altitude: -961m</p><p>Temps d'élévation: 00:48</p><p>Temps de descente: 01:08</p><hr align="center" width="480" style="height: 2px; width: 517px"/>]]></desc>
    <trkseg>
      <trkpt lat="43.76479" lon="7.1128">
        <ele>406.36</ele>
        <time>2016-10-08T14:54:16Z</time>
      </trkpt>
      <trkpt lat="43.76461" lon="7.11272">
        <ele>438.67</ele>
        <time>2016-10-08T14:54:38Z</time>
      </trkpt>
      <trkpt lat="43.76498" lon="7.1125">
        <ele>445.49</ele>
        <time>2016-10-08T14:55:32Z</time>
      </trkpt>
      <trkpt lat="43.7651" lon="7.11271">
        <ele>460.54</ele>
        <time>2016-10-08T14:55:49Z</time>
      </trkpt>
      <trkpt lat="43.76527" lon="7.11279">
        <ele>465.84</ele>
        <time>2016-10-08T14:56:30Z</time>
      </trkpt>
      <trkpt lat="43.76509" lon="7.11285">
        <ele>488.61</ele>
        <time>2016-10-08T14:58:40Z</time>
      </trkpt>
      <trkpt lat="43.7649" lon="7.11284">
        <ele>482.07</ele>
        <time>2016-10-08T14:59:16Z</time>
      </trkpt>
      <trkpt lat="43.76471" lon="7.11285">
        <ele>494.25</ele>
        <time>2016-10-08T15:00:06Z</time>
      </trkpt>
      <trkpt lat="43.76454" lon="7.11294">
        <ele>498.29</ele>
        <time>2016-10-08T15:00:54Z</time>
      </trkpt>
      <trkpt lat="43.76388" lon="7.11293">
        <ele>509.55</ele>
        <time>2016-10-08T15:07:15Z</time>
      </trkpt>
      <trkpt lat="43.76413" lon="7.11318">
        <ele>535.05</ele>
        <time>2016-10-08T15:07:16Z</time>
      </trkpt>
      <trkpt lat="43.76411" lon="7.11287">
        <ele>506.75</ele>
        <time>2016-10-08T15:07:25Z</time>
      </trkpt>
      <trkpt lat="43.76376" lon="7.11272">
        <ele>463.06</ele>
        <time>2016-10-08T15:13:48Z</time>
      </trkpt>
      <trkpt lat="43.76369" lon="7.11249">
        <ele>437.49</ele>
        <time>2016-10-08T15:14:12Z</time>
      </trkpt>
      <trkpt lat="43.76353" lon="7.11234">
        <ele>447.56</ele>
        <time>2016-10-08T15:14:45Z</time>
      </trkpt>
      <trkpt lat="43.76336" lon="7.11224">
        <ele>454.63</ele>
        <time>2016-10-08T15:15:00Z</time>
      </trkpt>
      <trkpt lat="43.76318" lon="7.11223">
        <ele>450.61</ele>
        <time>2016-10-08T15:15:14Z</time>
      </trkpt>
      <trkpt lat="43.763" lon="7.11216">
        <ele>456.55</ele>
        <time>2016-10-08T15:16:17Z</time>
      </trkpt>
      <trkpt lat="43.76282" lon="7.11229">
        <ele>457.42</ele>
        <time>2016-10-08T15:17:32Z</time>
      </trkpt>
      <trkpt lat="43.7628" lon="7.11255">
        <ele>462.32</ele>
        <time>2016-10-08T15:21:28Z</time>
      </trkpt>
      <trkpt lat="43.76296" lon="7.11269">
        <ele>460.49</ele>
        <time>2016-10-08T15:21:36Z</time>
      </trkpt>
      <trkpt lat="43.76279" lon="7.11279">
        <ele>452.61</ele>
        <time>2016-10-08T15:21:40Z</time>
      </trkpt>
      <trkpt lat="43.76261" lon="7.11291">
        <ele>450.94</ele>
        <time>2016-10-08T15:21:50Z</time>
      </trkpt>
      <trkpt lat="43.76251" lon="7.11311">
        <ele>468.17</ele>
        <time>2016-10-08T15:23:02Z</time>
      </trkpt>
      <trkpt lat="43.76263" lon="7.11293">
        <ele>440.57</ele>
        <time>2016-10-08T15:23:43Z</time>
      </trkpt>
      <trkpt lat="43.7628" lon="7.11284">
        <ele>443.83</ele>
        <time>2016-10-08T15:23:59Z</time>
      </trkpt>
      <trkpt lat="43.76273" lon="7.11308">
        <ele>441.19</ele>
        <time>2016-10-08T15:27:12Z</time>
      </trkpt>
      <trkpt lat="43.76258" lon="7.11326">
        <ele>443.72</ele>
        <time>2016-10-08T15:27:47Z</time>
      </trkpt>
      <trkpt lat="43.7624" lon="7.11338">
        <ele>439.56</ele>
        <time>2016-10-08T15:28:05Z</time>
      </trkpt>
      <trkpt lat="43.76227" lon="7.11355">
        <ele>443.33</ele>
        <time>2016-10-08T15:28:47Z</time>
      </trkpt>
      <trkpt lat="43.76226" lon="7.1138">
        <ele>440.55</ele>
        <time>2016-10-08T15:30:48Z</time>
      </trkpt>
      <trkpt lat="43.76225" lon="7.11405">
        <ele>439.92</ele>
        <time>2016-10-08T15:32:35Z</time>
      </trkpt>
      <trkpt lat="43.76229" lon="7.11431">
        <ele>434.72</ele>
        <time>2016-10-08T15:32:43Z</time>
      </trkpt>
      <trkpt lat="43.76223" lon="7.11458">
        <ele>426.69</ele>
        <time>2016-10-08T15:33:38Z</time>
      </trkpt>
      <trkpt lat="43.76223" lon="7.11483">
        <ele>435.24</ele>
        <time>2016-10-08T15:34:03Z</time>
      </trkpt>
      <trkpt lat="43.7621" lon="7.11501">
        <ele>420.03</ele>
        <time>2016-10-08T15:36:08Z</time>
      </trkpt>
      <trkpt lat="43.76193" lon="7.11509">
        <ele>416.92</ele>
        <time>2016-10-08T15:42:34Z</time>
      </trkpt>
      <trkpt lat="43.76173" lon="7.11518">
        <ele>419.59</ele>
        <time>2016-10-08T15:42:50Z</time>
      </trkpt>
      <trkpt lat="43.76179" lon="7.11529">
        <ele>424.55</ele>
        <time>2016-10-08T15:44:05Z</time>
      </trkpt>
      <trkpt lat="43.76179" lon="7.11556">
        <ele>425.1</ele>
        <time>2016-10-08T15:44:17Z</time>
      </trkpt>
      <trkpt lat="43.76185" lon="7.11585">
        <ele>431</ele>
        <time>2016-10-08T15:45:05Z</time>
      </trkpt>
      <trkpt lat="43.7618" lon="7.11611">
        <ele>428.67</ele>
        <time>2016-10-08T15:47:34Z</time>
      </trkpt>
      <trkpt lat="43.7618" lon="7.11639">
        <ele>415.05</ele>
        <time>2016-10-08T15:48:47Z</time>
      </trkpt>
      <trkpt lat="43.76185" lon="7.11665">
        <ele>413.88</ele>
        <time>2016-10-08T15:48:54Z</time>
      </trkpt>
      <trkpt lat="43.76182" lon="7.1169">
        <ele>417.92</ele>
        <time>2016-10-08T15:49:11Z</time>
      </trkpt>
      <trkpt lat="43.76165" lon="7.11699">
        <ele>429.73</ele>
        <time>2016-10-08T15:49:51Z</time>
      </trkpt>
      <trkpt lat="43.76146" lon="7.11697">
        <ele>431.61</ele>
        <time>2016-10-08T15:50:06Z</time>
      </trkpt>
      <trkpt lat="43.76127" lon="7.11699">
        <ele>423.17</ele>
        <time>2016-10-08T15:50:17Z</time>
      </trkpt>
      <trkpt lat="43.76109" lon="7.11708">
        <ele>421.84</ele>
        <time>2016-10-08T15:50:27Z</time>
      </trkpt>
      <trkpt lat="43.76094" lon="7.11722">
        <ele>425.36</ele>
        <time>2016-10-08T15:50:40Z</time>
      </trkpt>
      <trkpt lat="43.76081" lon="7.11741">
        <ele>430.12</ele>
        <time>2016-10-08T15:50:54Z</time>
      </trkpt>
      <trkpt lat="43.76065" lon="7.11755">
        <ele>432.17</ele>
        <time>2016-10-08T15:51:09Z</time>
      </trkpt>
      <trkpt lat="43.76048" lon="7.11766">
        <ele>431.31</ele>
        <time>2016-10-08T15:51:24Z</time>
      </trkpt>
      <trkpt lat="43.7603" lon="7.11768">
        <ele>425.38</ele>
        <time>2016-10-08T15:51:45Z</time>
      </trkpt>
      <trkpt lat="43.76012" lon="7.11759">
        <ele>422.11</ele>
        <time>2016-10-08T15:52:04Z</time>
      </trkpt>
      <trkpt lat="43.75995" lon="7.11748">
        <ele>423.66</ele>
        <time>2016-10-08T15:52:19Z</time>
      </trkpt>
      <trkpt lat="43.75977" lon="7.1174">
        <ele>419.28</ele>
        <time>2016-10-08T15:52:33Z</time>
      </trkpt>
      <trkpt lat="43.75959" lon="7.11734">
        <ele>423.94</ele>
        <time>2016-10-08T15:52:50Z</time>
      </trkpt>
      <trkpt lat="43.75945" lon="7.11719">
        <ele>412.97</ele>
        <time>2016-10-08T15:53:07Z</time>
      </trkpt>
      <trkpt lat="43.75928" lon="7.11707">
        <ele>409.84</ele>
        <time>2016-10-08T15:53:26Z</time>
      </trkpt>
      <trkpt lat="43.75912" lon="7.11691">
        <ele>409.36</ele>
        <time>2016-10-08T15:53:42Z</time>
      </trkpt>
      <trkpt lat="43.75895" lon="7.11679">
        <ele>398.18</ele>
        <time>2016-10-08T15:53:58Z</time>
      </trkpt>
      <trkpt lat="43.75877" lon="7.11673">
        <ele>402.72</ele>
        <time>2016-10-08T15:54:19Z</time>
      </trkpt>
      <trkpt lat="43.75864" lon="7.11655">
        <ele>395.81</ele>
        <time>2016-10-08T15:54:36Z</time>
      </trkpt>
      <trkpt lat="43.75852" lon="7.11635">
        <ele>391.13</ele>
        <time>2016-10-08T15:54:52Z</time>
      </trkpt>
      <trkpt lat="43.75841" lon="7.11615">
        <ele>393.77</ele>
        <time>2016-10-08T15:55:05Z</time>
      </trkpt>
      <trkpt lat="43.75828" lon="7.11595">
        <ele>398.71</ele>
        <time>2016-10-08T15:55:23Z</time>
      </trkpt>
      <trkpt lat="43.75807" lon="7.11601">
        <ele>416.07</ele>
        <time>2016-10-08T15:55:50Z</time>
      </trkpt>
      <trkpt lat="43.7579" lon="7.1161">
        <ele>428.1</ele>
        <time>2016-10-08T15:56:08Z</time>
      </trkpt>
      <trkpt lat="43.75776" lon="7.11626">
        <ele>411.58</ele>
        <time>2016-10-08T15:56:23Z</time>
      </trkpt>
      <trkpt lat="43.75768" lon="7.11648">
        <ele>412.85</ele>
        <time>2016-10-08T15:56:34Z</time>
      </trkpt>
      <trkpt lat="43.75759" lon="7.11672">
        <ele>403.42</ele>
        <time>2016-10-08T15:58:07Z</time>
      </trkpt>
      <trkpt lat="43.75742" lon="7.11681">
        <ele>401.04</ele>
        <time>2016-10-08T15:58:19Z</time>
      </trkpt>
      <trkpt lat="43.75725" lon="7.1169">
        <ele>401.65</ele>
        <time>2016-10-08T15:58:32Z</time>
      </trkpt>
      <trkpt lat="43.7571" lon="7.11704">
        <ele>405.56</ele>
        <time>2016-10-08T15:58:43Z</time>
      </trkpt>
      <trkpt lat="43.75693" lon="7.11715">
        <ele>403.05</ele>
        <time>2016-10-08T15:59:01Z</time>
      </trkpt>
      <trkpt lat="43.75677" lon="7.11728">
        <ele>406.44</ele>
        <time>2016-10-08T15:59:12Z</time>
      </trkpt>
      <trkpt lat="43.75662" lon="7.11745">
        <ele>410.53</ele>
        <time>2016-10-08T15:59:26Z</time>
      </trkpt>
      <trkpt lat="43.75649" lon="7.11764">
        <ele>410.28</ele>
        <time>2016-10-08T15:59:40Z</time>
      </trkpt>
      <trkpt lat="43.7564" lon="7.11787">
        <ele>411.81</ele>
        <time>2016-10-08T16:00:00Z</time>
      </trkpt>
      <trkpt lat="43.756" lon="7.11811">
        <ele>423.46</ele>
        <time>2016-10-08T16:01:35Z</time>
      </trkpt>
      <trkpt lat="43.75583" lon="7.11836">
        <ele>425.55</ele>
        <time>2016-10-08T16:02:19Z</time>
      </trkpt>
      <trkpt lat="43.75594" lon="7.11858">
        <ele>423.94</ele>
        <time>2016-10-08T16:02:34Z</time>
      </trkpt>
      <trkpt lat="43.75583" lon="7.11882">
        <ele>421.5</ele>
        <time>2016-10-08T16:02:43Z</time>
      </trkpt>
      <trkpt lat="43.75575" lon="7.11905">
        <ele>405.84</ele>
        <time>2016-10-08T16:02:57Z</time>
      </trkpt>
      <trkpt lat="43.75575" lon="7.11934">
        <ele>421.95</ele>
        <time>2016-10-08T16:03:08Z</time>
      </trkpt>
      <trkpt lat="43.75565" lon="7.11956">
        <ele>424.65</ele>
        <time>2016-10-08T16:03:28Z</time>
      </trkpt>
      <trkpt lat="43.75551" lon="7.11976">
        <ele>419.2</ele>
        <time>2016-10-08T16:03:41Z</time>
      </trkpt>
      <trkpt lat="43.75556" lon="7.12002">
        <ele>416.66</ele>
        <time>2016-10-08T16:03:56Z</time>
      </trkpt>
      <trkpt lat="43.75545" lon="7.12024">
        <ele>421.59</ele>
        <time>2016-10-08T16:04:10Z</time>
      </trkpt>
      <trkpt lat="43.75535" lon="7.12049">
        <ele>404.78</ele>
        <time>2016-10-08T16:04:24Z</time>
      </trkpt>
      <trkpt lat="43.75524" lon="7.12069">
        <ele>414.68</ele>
        <time>2016-10-08T16:04:36Z</time>
      </trkpt>
      <trkpt lat="43.7552" lon="7.12094">
        <ele>417.62</ele>
        <time>2016-10-08T16:05:46Z</time>
      </trkpt>
      <trkpt lat="43.75517" lon="7.12119">
        <ele>417.67</ele>
        <time>2016-10-08T16:06:03Z</time>
      </trkpt>
      <trkpt lat="43.75514" lon="7.12183">
        <ele>415.33</ele>
        <time>2016-10-08T16:06:37Z</time>
      </trkpt>
      <trkpt lat="43.75505" lon="7.12205">
        <ele>413.98</ele>
        <time>2016-10-08T16:06:51Z</time>
      </trkpt>
      <trkpt lat="43.75511" lon="7.12229">
        <ele>412.31</ele>
        <time>2016-10-08T16:07:04Z</time>
      </trkpt>
      <trkpt lat="43.75514" lon="7.12255">
        <ele>415.16</ele>
        <time>2016-10-08T16:07:17Z</time>
      </trkpt>
      <trkpt lat="43.75507" lon="7.12278">
        <ele>414.24</ele>
        <time>2016-10-08T16:07:45Z</time>
      </trkpt>
      <trkpt lat="43.75489" lon="7.12284">
        <ele>411.43</ele>
        <time>2016-10-08T16:08:27Z</time>
      </trkpt>
      <trkpt lat="43.75472" lon="7.12294">
        <ele>411.61</ele>
        <time>2016-10-08T16:08:40Z</time>
      </trkpt>
      <trkpt lat="43.75457" lon="7.12308">
        <ele>413.94</ele>
        <time>2016-10-08T16:08:54Z</time>
      </trkpt>
      <trkpt lat="43.75438" lon="7.12319">
        <ele>415.85</ele>
        <time>2016-10-08T16:09:13Z</time>
      </trkpt>
      <trkpt lat="43.75419" lon="7.12326">
        <ele>418.27</ele>
        <time>2016-10-08T16:09:25Z</time>
      </trkpt>
      <trkpt lat="43.75402" lon="7.12337">
        <ele>417.77</ele>
        <time>2016-10-08T16:09:48Z</time>
      </trkpt>
      <trkpt lat="43.75389" lon="7.12354">
        <ele>415.18</ele>
        <time>2016-10-08T16:09:57Z</time>
      </trkpt>
      <trkpt lat="43.75376" lon="7.12374">
        <ele>419.33</ele>
        <time>2016-10-08T16:10:08Z</time>
      </trkpt>
      <trkpt lat="43.75365" lon="7.12394">
        <ele>420.52</ele>
        <time>2016-10-08T16:10:23Z</time>
      </trkpt>
      <trkpt lat="43.75354" lon="7.12413">
        <ele>420.26</ele>
        <time>2016-10-08T16:10:37Z</time>
      </trkpt>
      <trkpt lat="43.75341" lon="7.12434">
        <ele>417.37</ele>
        <time>2016-10-08T16:10:53Z</time>
      </trkpt>
      <trkpt lat="43.75312" lon="7.12508">
        <ele>419.04</ele>
        <time>2016-10-08T16:11:49Z</time>
      </trkpt>
      <trkpt lat="43.75297" lon="7.12523">
        <ele>425.01</ele>
        <time>2016-10-08T16:11:55Z</time>
      </trkpt>
      <trkpt lat="43.75293" lon="7.12549">
        <ele>422.89</ele>
        <time>2016-10-08T16:12:09Z</time>
      </trkpt>
      <trkpt lat="43.7529" lon="7.12575">
        <ele>421.68</ele>
        <time>2016-10-08T16:12:22Z</time>
      </trkpt>
      <trkpt lat="43.75281" lon="7.12599">
        <ele>421.85</ele>
        <time>2016-10-08T16:12:35Z</time>
      </trkpt>
      <trkpt lat="43.75265" lon="7.12612">
        <ele>417</ele>
        <time>2016-10-08T16:12:49Z</time>
      </trkpt>
      <trkpt lat="43.75248" lon="7.12619">
        <ele>416.19</ele>
        <time>2016-10-08T16:13:01Z</time>
      </trkpt>
      <trkpt lat="43.75229" lon="7.12622">
        <ele>418.11</ele>
        <time>2016-10-08T16:13:18Z</time>
      </trkpt>
      <trkpt lat="43.75208" lon="7.12635">
        <ele>413.61</ele>
        <time>2016-10-08T16:15:57Z</time>
      </trkpt>
      <trkpt lat="43.75192" lon="7.1262">
        <ele>410.15</ele>
        <time>2016-10-08T16:16:04Z</time>
      </trkpt>
      <trkpt lat="43.75061" lon="7.12573">
        <ele>366.45</ele>
        <time>2016-10-08T16:16:44Z</time>
      </trkpt>
      <trkpt lat="43.75043" lon="7.12577">
        <ele>344.73</ele>
        <time>2016-10-08T16:16:50Z</time>
      </trkpt>
      <trkpt lat="43.75022" lon="7.12569">
        <ele>342.87</ele>
        <time>2016-10-08T16:16:55Z</time>
      </trkpt>
      <trkpt lat="43.74995" lon="7.12576">
        <ele>356.81</ele>
        <time>2016-10-08T16:17:00Z</time>
      </trkpt>
      <trkpt lat="43.74975" lon="7.12578">
        <ele>364.02</ele>
        <time>2016-10-08T16:17:05Z</time>
      </trkpt>
      <trkpt lat="43.74953" lon="7.12577">
        <ele>360.63</ele>
        <time>2016-10-08T16:17:10Z</time>
      </trkpt>
      <trkpt lat="43.74931" lon="7.12591">
        <ele>367.37</ele>
        <time>2016-10-08T16:17:14Z</time>
      </trkpt>
      <trkpt lat="43.74918" lon="7.12613">
        <ele>376.53</ele>
        <time>2016-10-08T16:17:20Z</time>
      </trkpt>
      <trkpt lat="43.74899" lon="7.12612">
        <ele>379.3</ele>
        <time>2016-10-08T16:17:24Z</time>
      </trkpt>
      <trkpt lat="43.74879" lon="7.12603">
        <ele>381.35</ele>
        <time>2016-10-08T16:17:29Z</time>
      </trkpt>
      <trkpt lat="43.7486" lon="7.12593">
        <ele>380.41</ele>
        <time>2016-10-08T16:17:33Z</time>
      </trkpt>
      <trkpt lat="43.74843" lon="7.12581">
        <ele>384.66</ele>
        <time>2016-10-08T16:17:38Z</time>
      </trkpt>
      <trkpt lat="43.74822" lon="7.1258">
        <ele>387.21</ele>
        <time>2016-10-08T16:17:43Z</time>
      </trkpt>
      <trkpt lat="43.74804" lon="7.12586">
        <ele>388.32</ele>
        <time>2016-10-08T16:17:48Z</time>
      </trkpt>
      <trkpt lat="43.74782" lon="7.12605">
        <ele>392.22</ele>
        <time>2016-10-08T16:17:52Z</time>
      </trkpt>
      <trkpt lat="43.74759" lon="7.12611">
        <ele>387.13</ele>
        <time>2016-10-08T16:17:57Z</time>
      </trkpt>
      <trkpt lat="43.74739" lon="7.12623">
        <ele>388.25</ele>
        <time>2016-10-08T16:18:00Z</time>
      </trkpt>
      <trkpt lat="43.74723" lon="7.12638">
        <ele>386.01</ele>
        <time>2016-10-08T16:18:03Z</time>
      </trkpt>
      <trkpt lat="43.74711" lon="7.12658">
        <ele>388.73</ele>
        <time>2016-10-08T16:18:06Z</time>
      </trkpt>
      <trkpt lat="43.74697" lon="7.12683">
        <ele>390.57</ele>
        <time>2016-10-08T16:18:09Z</time>
      </trkpt>
      <trkpt lat="43.74687" lon="7.12707">
        <ele>395.3</ele>
        <time>2016-10-08T16:18:12Z</time>
      </trkpt>
      <trkpt lat="43.74669" lon="7.12725">
        <ele>400.02</ele>
        <time>2016-10-08T16:18:15Z</time>
      </trkpt>
      <trkpt lat="43.74655" lon="7.12753">
        <ele>403.2</ele>
        <time>2016-10-08T16:18:19Z</time>
      </trkpt>
      <trkpt lat="43.74649" lon="7.12778">
        <ele>408.53</ele>
        <time>2016-10-08T16:18:23Z</time>
      </trkpt>
      <trkpt lat="43.74631" lon="7.12785">
        <ele>410.92</ele>
        <time>2016-10-08T16:18:30Z</time>
      </trkpt>
      <trkpt lat="43.74609" lon="7.12779">
        <ele>409.27</ele>
        <time>2016-10-08T16:18:36Z</time>
      </trkpt>
      <trkpt lat="43.74588" lon="7.12788">
        <ele>405.47</ele>
        <time>2016-10-08T16:18:40Z</time>
      </trkpt>
      <trkpt lat="43.74568" lon="7.12798">
        <ele>403.86</ele>
        <time>2016-10-08T16:18:44Z</time>
      </trkpt>
      <trkpt lat="43.74547" lon="7.12808">
        <ele>404.75</ele>
        <time>2016-10-08T16:18:48Z</time>
      </trkpt>
      <trkpt lat="43.7453" lon="7.1282">
        <ele>402.07</ele>
        <time>2016-10-08T16:18:51Z</time>
      </trkpt>
      <trkpt lat="43.74507" lon="7.1283">
        <ele>401.36</ele>
        <time>2016-10-08T16:18:54Z</time>
      </trkpt>
      <trkpt lat="43.74486" lon="7.12849">
        <ele>401.9</ele>
        <time>2016-10-08T16:18:57Z</time>
      </trkpt>
      <trkpt lat="43.74465" lon="7.12865">
        <ele>404.09</ele>
        <time>2016-10-08T16:19:00Z</time>
      </trkpt>
      <trkpt lat="43.74445" lon="7.12881">
        <ele>400.87</ele>
        <time>2016-10-08T16:19:03Z</time>
      </trkpt>
      <trkpt lat="43.74427" lon="7.12889">
        <ele>400.96</ele>
        <time>2016-10-08T16:19:06Z</time>
      </trkpt>
      <trkpt lat="43.74405" lon="7.12893">
        <ele>403.2</ele>
        <time>2016-10-08T16:19:10Z</time>
      </trkpt>
      <trkpt lat="43.74385" lon="7.12882">
        <ele>402.6</ele>
        <time>2016-10-08T16:19:25Z</time>
      </trkpt>
      <trkpt lat="43.74363" lon="7.12873">
        <ele>403.05</ele>
        <time>2016-10-08T16:19:30Z</time>
      </trkpt>
      <trkpt lat="43.74345" lon="7.12864">
        <ele>405.11</ele>
        <time>2016-10-08T16:19:33Z</time>
      </trkpt>
      <trkpt lat="43.74325" lon="7.1286">
        <ele>406.21</ele>
        <time>2016-10-08T16:19:37Z</time>
      </trkpt>
      <trkpt lat="43.74304" lon="7.1286">
        <ele>407.01</ele>
        <time>2016-10-08T16:19:40Z</time>
      </trkpt>
      <trkpt lat="43.74283" lon="7.1286">
        <ele>408.48</ele>
        <time>2016-10-08T16:19:43Z</time>
      </trkpt>
      <trkpt lat="43.74262" lon="7.12857">
        <ele>408.73</ele>
        <time>2016-10-08T16:19:47Z</time>
      </trkpt>
      <trkpt lat="43.74245" lon="7.12864">
        <ele>409.07</ele>
        <time>2016-10-08T16:19:50Z</time>
      </trkpt>
      <trkpt lat="43.74226" lon="7.12874">
        <ele>410.24</ele>
        <time>2016-10-08T16:19:53Z</time>
      </trkpt>
      <trkpt lat="43.74207" lon="7.12876">
        <ele>410.26</ele>
        <time>2016-10-08T16:19:56Z</time>
      </trkpt>
      <trkpt lat="43.74187" lon="7.12879">
        <ele>410.89</ele>
        <time>2016-10-08T16:19:59Z</time>
      </trkpt>
      <trkpt lat="43.74168" lon="7.12883">
        <ele>412.22</ele>
        <time>2016-10-08T16:20:02Z</time>
      </trkpt>
      <trkpt lat="43.74146" lon="7.12879">
        <ele>414.7</ele>
        <time>2016-10-08T16:20:39Z</time>
      </trkpt>
      <trkpt lat="43.74128" lon="7.12869">
        <ele>412.07</ele>
        <time>2016-10-08T16:20:42Z</time>
      </trkpt>
      <trkpt lat="43.74108" lon="7.12864">
        <ele>412.11</ele>
        <time>2016-10-08T16:20:45Z</time>
      </trkpt>
      <trkpt lat="43.74086" lon="7.12862">
        <ele>411.62</ele>
        <time>2016-10-08T16:20:48Z</time>
      </trkpt>
      <trkpt lat="43.74064" lon="7.12857">
        <ele>409.06</ele>
        <time>2016-10-08T16:20:51Z</time>
      </trkpt>
      <trkpt lat="43.74046" lon="7.12846">
        <ele>406.99</ele>
        <time>2016-10-08T16:20:54Z</time>
      </trkpt>
      <trkpt lat="43.74027" lon="7.12832">
        <ele>405.73</ele>
        <time>2016-10-08T16:20:57Z</time>
      </trkpt>
      <trkpt lat="43.7401" lon="7.12817">
        <ele>406.07</ele>
        <time>2016-10-08T16:21:00Z</time>
      </trkpt>
      <trkpt lat="43.74001" lon="7.12792">
        <ele>407.21</ele>
        <time>2016-10-08T16:21:04Z</time>
      </trkpt>
      <trkpt lat="43.74004" lon="7.12764">
        <ele>414.75</ele>
        <time>2016-10-08T16:23:31Z</time>
      </trkpt>
      <trkpt lat="43.73997" lon="7.12741">
        <ele>414.57</ele>
        <time>2016-10-08T16:23:34Z</time>
      </trkpt>
      <trkpt lat="43.73989" lon="7.12716">
        <ele>414.05</ele>
        <time>2016-10-08T16:23:37Z</time>
      </trkpt>
      <trkpt lat="43.73979" lon="7.12686">
        <ele>411.77</ele>
        <time>2016-10-08T16:23:41Z</time>
      </trkpt>
      <trkpt lat="43.73972" lon="7.12662">
        <ele>410.7</ele>
        <time>2016-10-08T16:23:44Z</time>
      </trkpt>
      <trkpt lat="43.73958" lon="7.12636">
        <ele>410.57</ele>
        <time>2016-10-08T16:23:47Z</time>
      </trkpt>
      <trkpt lat="43.73946" lon="7.12611">
        <ele>409.18</ele>
        <time>2016-10-08T16:23:50Z</time>
      </trkpt>
      <trkpt lat="43.73937" lon="7.12583">
        <ele>408.88</ele>
        <time>2016-10-08T16:23:53Z</time>
      </trkpt>
      <trkpt lat="43.73938" lon="7.1255">
        <ele>409.34</ele>
        <time>2016-10-08T16:23:56Z</time>
      </trkpt>
      <trkpt lat="43.73937" lon="7.12514">
        <ele>410.65</ele>
        <time>2016-10-08T16:23:59Z</time>
      </trkpt>
      <trkpt lat="43.73924" lon="7.12489">
        <ele>408.56</ele>
        <time>2016-10-08T16:24:02Z</time>
      </trkpt>
      <trkpt lat="43.73913" lon="7.12459">
        <ele>407.42</ele>
        <time>2016-10-08T16:24:05Z</time>
      </trkpt>
      <trkpt lat="43.73904" lon="7.12435">
        <ele>407.28</ele>
        <time>2016-10-08T16:24:08Z</time>
      </trkpt>
      <trkpt lat="43.73895" lon="7.1241">
        <ele>408.89</ele>
        <time>2016-10-08T16:24:11Z</time>
      </trkpt>
      <trkpt lat="43.7389" lon="7.12383">
        <ele>408.22</ele>
        <time>2016-10-08T16:24:14Z</time>
      </trkpt>
      <trkpt lat="43.73891" lon="7.12348">
        <ele>408.51</ele>
        <time>2016-10-08T16:24:17Z</time>
      </trkpt>
      <trkpt lat="43.73889" lon="7.12315">
        <ele>409.79</ele>
        <time>2016-10-08T16:24:20Z</time>
      </trkpt>
      <trkpt lat="43.73884" lon="7.12287">
        <ele>409.7</ele>
        <time>2016-10-08T16:24:23Z</time>
      </trkpt>
      <trkpt lat="43.73875" lon="7.12259">
        <ele>409.57</ele>
        <time>2016-10-08T16:24:26Z</time>
      </trkpt>
      <trkpt lat="43.73877" lon="7.12231">
        <ele>409.68</ele>
        <time>2016-10-08T16:24:29Z</time>
      </trkpt>
      <trkpt lat="43.73866" lon="7.12209">
        <ele>408.94</ele>
        <time>2016-10-08T16:24:32Z</time>
      </trkpt>
      <trkpt lat="43.73847" lon="7.12188">
        <ele>409.85</ele>
        <time>2016-10-08T16:24:35Z</time>
      </trkpt>
      <trkpt lat="43.73829" lon="7.12167">
        <ele>409.84</ele>
        <time>2016-10-08T16:24:38Z</time>
      </trkpt>
      <trkpt lat="43.73812" lon="7.12146">
        <ele>409.58</ele>
        <time>2016-10-08T16:24:41Z</time>
      </trkpt>
      <trkpt lat="43.73793" lon="7.12126">
        <ele>409.3</ele>
        <time>2016-10-08T16:24:44Z</time>
      </trkpt>
      <trkpt lat="43.7377" lon="7.12109">
        <ele>409.27</ele>
        <time>2016-10-08T16:24:47Z</time>
      </trkpt>
      <trkpt lat="43.73753" lon="7.12085">
        <ele>409.01</ele>
        <time>2016-10-08T16:24:50Z</time>
      </trkpt>
      <trkpt lat="43.73731" lon="7.12064">
        <ele>407.86</ele>
        <time>2016-10-08T16:24:53Z</time>
      </trkpt>
      <trkpt lat="43.73714" lon="7.12044">
        <ele>407.59</ele>
        <time>2016-10-08T16:24:56Z</time>
      </trkpt>
      <trkpt lat="43.73696" lon="7.12026">
        <ele>406.05</ele>
        <time>2016-10-08T16:24:59Z</time>
      </trkpt>
      <trkpt lat="43.73677" lon="7.12007">
        <ele>406.49</ele>
        <time>2016-10-08T16:25:02Z</time>
      </trkpt>
      <trkpt lat="43.73655" lon="7.11988">
        <ele>408.67</ele>
        <time>2016-10-08T16:25:05Z</time>
      </trkpt>
      <trkpt lat="43.73633" lon="7.11973">
        <ele>408.94</ele>
        <time>2016-10-08T16:25:08Z</time>
      </trkpt>
      <trkpt lat="43.73614" lon="7.11957">
        <ele>407.22</ele>
        <time>2016-10-08T16:25:11Z</time>
      </trkpt>
      <trkpt lat="43.73592" lon="7.11948">
        <ele>408.38</ele>
        <time>2016-10-08T16:25:14Z</time>
      </trkpt>
      <trkpt lat="43.73572" lon="7.1193">
        <ele>408.53</ele>
        <time>2016-10-08T16:25:17Z</time>
      </trkpt>
      <trkpt lat="43.73552" lon="7.1191">
        <ele>406.55</ele>
        <time>2016-10-08T16:25:20Z</time>
      </trkpt>
      <trkpt lat="43.73533" lon="7.11889">
        <ele>407.3</ele>
        <time>2016-10-08T16:25:23Z</time>
      </trkpt>
      <trkpt lat="43.73517" lon="7.11875">
        <ele>407.99</ele>
        <time>2016-10-08T16:25:25Z</time>
      </trkpt>
      <trkpt lat="43.73495" lon="7.11853">
        <ele>407.35</ele>
        <time>2016-10-08T16:25:28Z</time>
      </trkpt>
      <trkpt lat="43.73475" lon="7.11831">
        <ele>407.52</ele>
        <time>2016-10-08T16:25:31Z</time>
      </trkpt>
      <trkpt lat="43.73452" lon="7.11819">
        <ele>406.54</ele>
        <time>2016-10-08T16:25:34Z</time>
      </trkpt>
      <trkpt lat="43.73435" lon="7.11807">
        <ele>406.55</ele>
        <time>2016-10-08T16:25:36Z</time>
      </trkpt>
      <trkpt lat="43.73418" lon="7.11792">
        <ele>405.3</ele>
        <time>2016-10-08T16:25:38Z</time>
      </trkpt>
      <trkpt lat="43.73404" lon="7.11774">
        <ele>406.24</ele>
        <time>2016-10-08T16:25:40Z</time>
      </trkpt>
      <trkpt lat="43.73389" lon="7.11756">
        <ele>407.97</ele>
        <time>2016-10-08T16:25:42Z</time>
      </trkpt>
      <trkpt lat="43.73376" lon="7.11738">
        <ele>408.15</ele>
        <time>2016-10-08T16:25:44Z</time>
      </trkpt>
      <trkpt lat="43.73362" lon="7.1172">
        <ele>407.7</ele>
        <time>2016-10-08T16:25:46Z</time>
      </trkpt>
      <trkpt lat="43.73344" lon="7.11691">
        <ele>406.32</ele>
        <time>2016-10-08T16:25:49Z</time>
      </trkpt>
      <trkpt lat="43.73326" lon="7.11668">
        <ele>405.77</ele>
        <time>2016-10-08T16:25:52Z</time>
      </trkpt>
      <trkpt lat="43.73308" lon="7.11649">
        <ele>407.08</ele>
        <time>2016-10-08T16:25:55Z</time>
      </trkpt>
      <trkpt lat="43.73289" lon="7.11628">
        <ele>406.74</ele>
        <time>2016-10-08T16:25:58Z</time>
      </trkpt>
      <trkpt lat="43.73273" lon="7.11616">
        <ele>405.85</ele>
        <time>2016-10-08T16:26:00Z</time>
      </trkpt>
      <trkpt lat="43.73256" lon="7.11606">
        <ele>405.62</ele>
        <time>2016-10-08T16:26:02Z</time>
      </trkpt>
      <trkpt lat="43.73239" lon="7.1159">
        <ele>406.06</ele>
        <time>2016-10-08T16:26:05Z</time>
      </trkpt>
      <trkpt lat="43.7299" lon="7.11209">
        <ele>415.93</ele>
        <time>2016-10-08T16:27:02Z</time>
      </trkpt>
      <trkpt lat="43.72979" lon="7.11188">
        <ele>415.35</ele>
        <time>2016-10-08T16:27:05Z</time>
      </trkpt>
      <trkpt lat="43.72964" lon="7.11163">
        <ele>412.15</ele>
        <time>2016-10-08T16:27:08Z</time>
      </trkpt>
      <trkpt lat="43.72954" lon="7.11131">
        <ele>406.62</ele>
        <time>2016-10-08T16:27:11Z</time>
      </trkpt>
      <trkpt lat="43.72946" lon="7.11107">
        <ele>403.87</ele>
        <time>2016-10-08T16:27:15Z</time>
      </trkpt>
      <trkpt lat="43.72941" lon="7.11081">
        <ele>403.09</ele>
        <time>2016-10-08T16:27:18Z</time>
      </trkpt>
      <trkpt lat="43.72937" lon="7.1105">
        <ele>403.12</ele>
        <time>2016-10-08T16:27:21Z</time>
      </trkpt>
      <trkpt lat="43.72933" lon="7.11019">
        <ele>404.74</ele>
        <time>2016-10-08T16:27:24Z</time>
      </trkpt>
      <trkpt lat="43.72938" lon="7.10984">
        <ele>407.07</ele>
        <time>2016-10-08T16:27:27Z</time>
      </trkpt>
      <trkpt lat="43.72946" lon="7.10952">
        <ele>406.36</ele>
        <time>2016-10-08T16:27:30Z</time>
      </trkpt>
      <trkpt lat="43.7295" lon="7.10918">
        <ele>407.4</ele>
        <time>2016-10-08T16:27:33Z</time>
      </trkpt>
      <trkpt lat="43.72958" lon="7.10885">
        <ele>408.28</ele>
        <time>2016-10-08T16:27:36Z</time>
      </trkpt>
      <trkpt lat="43.72968" lon="7.10856">
        <ele>409.89</ele>
        <time>2016-10-08T16:27:39Z</time>
      </trkpt>
      <trkpt lat="43.72976" lon="7.10832">
        <ele>411.34</ele>
        <time>2016-10-08T16:27:42Z</time>
      </trkpt>
      <trkpt lat="43.72983" lon="7.10804">
        <ele>412.41</ele>
        <time>2016-10-08T16:27:46Z</time>
      </trkpt>
      <trkpt lat="43.72993" lon="7.10781">
        <ele>413.98</ele>
        <time>2016-10-08T16:27:56Z</time>
      </trkpt>
      <trkpt lat="43.72997" lon="7.10752">
        <ele>412.73</ele>
        <time>2016-10-08T16:27:59Z</time>
      </trkpt>
      <trkpt lat="43.73002" lon="7.10716">
        <ele>410.95</ele>
        <time>2016-10-08T16:28:02Z</time>
      </trkpt>
      <trkpt lat="43.73007" lon="7.10683">
        <ele>407.97</ele>
        <time>2016-10-08T16:28:05Z</time>
      </trkpt>
      <trkpt lat="43.73015" lon="7.10633">
        <ele>406.35</ele>
        <time>2016-10-08T16:28:09Z</time>
      </trkpt>
      <trkpt lat="43.73024" lon="7.10606">
        <ele>405.75</ele>
        <time>2016-10-08T16:28:11Z</time>
      </trkpt>
      <trkpt lat="43.73041" lon="7.10585">
        <ele>403.85</ele>
        <time>2016-10-08T16:28:13Z</time>
      </trkpt>
      <trkpt lat="43.73053" lon="7.10565">
        <ele>402.37</ele>
        <time>2016-10-08T16:28:15Z</time>
      </trkpt>
      <trkpt lat="43.73064" lon="7.10546">
        <ele>400.25</ele>
        <time>2016-10-08T16:28:17Z</time>
      </trkpt>
      <trkpt lat="43.73078" lon="7.10524">
        <ele>398.97</ele>
        <time>2016-10-08T16:28:19Z</time>
      </trkpt>
      <trkpt lat="43.73096" lon="7.10507">
        <ele>397.65</ele>
        <time>2016-10-08T16:28:21Z</time>
      </trkpt>
      <trkpt lat="43.73111" lon="7.10484">
        <ele>397.57</ele>
        <time>2016-10-08T16:28:23Z</time>
      </trkpt>
      <trkpt lat="43.73127" lon="7.10462">
        <ele>397.55</ele>
        <time>2016-10-08T16:28:25Z</time>
      </trkpt>
      <trkpt lat="43.73142" lon="7.10443">
        <ele>398.05</ele>
        <time>2016-10-08T16:28:27Z</time>
      </trkpt>
      <trkpt lat="43.73165" lon="7.10429">
        <ele>394.36</ele>
        <time>2016-10-08T16:28:30Z</time>
      </trkpt>
      <trkpt lat="43.73185" lon="7.1042">
        <ele>391</ele>
        <time>2016-10-08T16:28:32Z</time>
      </trkpt>
      <trkpt lat="43.73203" lon="7.10408">
        <ele>389.16</ele>
        <time>2016-10-08T16:28:34Z</time>
      </trkpt>
      <trkpt lat="43.73222" lon="7.104">
        <ele>388.7</ele>
        <time>2016-10-08T16:28:36Z</time>
      </trkpt>
      <trkpt lat="43.73239" lon="7.10393">
        <ele>388.59</ele>
        <time>2016-10-08T16:28:38Z</time>
      </trkpt>
      <trkpt lat="43.73255" lon="7.10373">
        <ele>388.3</ele>
        <time>2016-10-08T16:28:41Z</time>
      </trkpt>
      <trkpt lat="43.73256" lon="7.10346">
        <ele>387.14</ele>
        <time>2016-10-08T16:28:44Z</time>
      </trkpt>
      <trkpt lat="43.73241" lon="7.10328">
        <ele>385.95</ele>
        <time>2016-10-08T16:28:46Z</time>
      </trkpt>
      <trkpt lat="43.73229" lon="7.10307">
        <ele>400.65</ele>
        <time>2016-10-08T16:28:48Z</time>
      </trkpt>
      <trkpt lat="43.73205" lon="7.10291">
        <ele>398.32</ele>
        <time>2016-10-08T16:28:50Z</time>
      </trkpt>
      <trkpt lat="43.73186" lon="7.10272">
        <ele>392.49</ele>
        <time>2016-10-08T16:28:52Z</time>
      </trkpt>
      <trkpt lat="43.73168" lon="7.10264">
        <ele>387.03</ele>
        <time>2016-10-08T16:28:54Z</time>
      </trkpt>
      <trkpt lat="43.73147" lon="7.10261">
        <ele>384.67</ele>
        <time>2016-10-08T16:28:56Z</time>
      </trkpt>
      <trkpt lat="43.73123" lon="7.10264">
        <ele>381.83</ele>
        <time>2016-10-08T16:28:58Z</time>
      </trkpt>
      <trkpt lat="43.73099" lon="7.10262">
        <ele>379.12</ele>
        <time>2016-10-08T16:29:00Z</time>
      </trkpt>
      <trkpt lat="43.73072" lon="7.10262">
        <ele>378.69</ele>
        <time>2016-10-08T16:29:02Z</time>
      </trkpt>
      <trkpt lat="43.73045" lon="7.10263">
        <ele>378.08</ele>
        <time>2016-10-08T16:29:04Z</time>
      </trkpt>
      <trkpt lat="43.73023" lon="7.10274">
        <ele>377.43</ele>
        <time>2016-10-08T16:29:06Z</time>
      </trkpt>
      <trkpt lat="43.73" lon="7.10287">
        <ele>375.52</ele>
        <time>2016-10-08T16:29:08Z</time>
      </trkpt>
      <trkpt lat="43.72978" lon="7.10299">
        <ele>373.54</ele>
        <time>2016-10-08T16:29:10Z</time>
      </trkpt>
      <trkpt lat="43.72953" lon="7.103">
        <ele>370.8</ele>
        <time>2016-10-08T16:29:12Z</time>
      </trkpt>
      <trkpt lat="43.7293" lon="7.103">
        <ele>369.11</ele>
        <time>2016-10-08T16:29:14Z</time>
      </trkpt>
      <trkpt lat="43.72908" lon="7.10303">
        <ele>369.19</ele>
        <time>2016-10-08T16:29:16Z</time>
      </trkpt>
      <trkpt lat="43.72884" lon="7.103">
        <ele>375.96</ele>
        <time>2016-10-08T16:29:18Z</time>
      </trkpt>
      <trkpt lat="43.72863" lon="7.10306">
        <ele>373.65</ele>
        <time>2016-10-08T16:29:20Z</time>
      </trkpt>
      <trkpt lat="43.72837" lon="7.10311">
        <ele>365.69</ele>
        <time>2016-10-08T16:29:23Z</time>
      </trkpt>
      <trkpt lat="43.72818" lon="7.10323">
        <ele>363.08</ele>
        <time>2016-10-08T16:29:25Z</time>
      </trkpt>
      <trkpt lat="43.72801" lon="7.10332">
        <ele>359.93</ele>
        <time>2016-10-08T16:29:27Z</time>
      </trkpt>
      <trkpt lat="43.72783" lon="7.10342">
        <ele>356.7</ele>
        <time>2016-10-08T16:29:31Z</time>
      </trkpt>
      <trkpt lat="43.72762" lon="7.10355">
        <ele>355.41</ele>
        <time>2016-10-08T16:29:39Z</time>
      </trkpt>
      <trkpt lat="43.72744" lon="7.10366">
        <ele>354.41</ele>
        <time>2016-10-08T16:29:42Z</time>
      </trkpt>
      <trkpt lat="43.72721" lon="7.10376">
        <ele>352.53</ele>
        <time>2016-10-08T16:29:45Z</time>
      </trkpt>
      <trkpt lat="43.72699" lon="7.10383">
        <ele>349.55</ele>
        <time>2016-10-08T16:29:48Z</time>
      </trkpt>
      <trkpt lat="43.72682" lon="7.10395">
        <ele>348.61</ele>
        <time>2016-10-08T16:29:52Z</time>
      </trkpt>
      <trkpt lat="43.72663" lon="7.10415">
        <ele>347.81</ele>
        <time>2016-10-08T16:29:55Z</time>
      </trkpt>
      <trkpt lat="43.72633" lon="7.10431">
        <ele>347.96</ele>
        <time>2016-10-08T16:29:58Z</time>
      </trkpt>
      <trkpt lat="43.72611" lon="7.10447">
        <ele>344.85</ele>
        <time>2016-10-08T16:30:01Z</time>
      </trkpt>
      <trkpt lat="43.72596" lon="7.10467">
        <ele>341.34</ele>
        <time>2016-10-08T16:30:04Z</time>
      </trkpt>
      <trkpt lat="43.72581" lon="7.10482">
        <ele>339.74</ele>
        <time>2016-10-08T16:30:06Z</time>
      </trkpt>
      <trkpt lat="43.72565" lon="7.10498">
        <ele>339.6</ele>
        <time>2016-10-08T16:30:08Z</time>
      </trkpt>
      <trkpt lat="43.72549" lon="7.10517">
        <ele>336.68</ele>
        <time>2016-10-08T16:30:12Z</time>
      </trkpt>
      <trkpt lat="43.72531" lon="7.10544">
        <ele>333.31</ele>
        <time>2016-10-08T16:30:16Z</time>
      </trkpt>
      <trkpt lat="43.72512" lon="7.10568">
        <ele>333.02</ele>
        <time>2016-10-08T16:30:19Z</time>
      </trkpt>
      <trkpt lat="43.72513" lon="7.10594">
        <ele>332.54</ele>
        <time>2016-10-08T16:30:25Z</time>
      </trkpt>
      <trkpt lat="43.72508" lon="7.10621">
        <ele>327.42</ele>
        <time>2016-10-08T16:30:28Z</time>
      </trkpt>
      <trkpt lat="43.72498" lon="7.10645">
        <ele>325.52</ele>
        <time>2016-10-08T16:30:30Z</time>
      </trkpt>
      <trkpt lat="43.72482" lon="7.10671">
        <ele>323.67</ele>
        <time>2016-10-08T16:30:33Z</time>
      </trkpt>
      <trkpt lat="43.7247" lon="7.10692">
        <ele>320.19</ele>
        <time>2016-10-08T16:30:36Z</time>
      </trkpt>
      <trkpt lat="43.72461" lon="7.10715">
        <ele>318.84</ele>
        <time>2016-10-08T16:30:49Z</time>
      </trkpt>
      <trkpt lat="43.72471" lon="7.1074">
        <ele>318.31</ele>
        <time>2016-10-08T16:30:54Z</time>
      </trkpt>
      <trkpt lat="43.72484" lon="7.10759">
        <ele>319.27</ele>
        <time>2016-10-08T16:30:57Z</time>
      </trkpt>
      <trkpt lat="43.725" lon="7.10781">
        <ele>319.39</ele>
        <time>2016-10-08T16:31:00Z</time>
      </trkpt>
      <trkpt lat="43.72515" lon="7.10804">
        <ele>318.4</ele>
        <time>2016-10-08T16:31:03Z</time>
      </trkpt>
      <trkpt lat="43.72528" lon="7.10825">
        <ele>318.03</ele>
        <time>2016-10-08T16:31:06Z</time>
      </trkpt>
      <trkpt lat="43.72541" lon="7.10849">
        <ele>317.11</ele>
        <time>2016-10-08T16:31:09Z</time>
      </trkpt>
      <trkpt lat="43.72555" lon="7.10873">
        <ele>316.24</ele>
        <time>2016-10-08T16:31:12Z</time>
      </trkpt>
      <trkpt lat="43.72569" lon="7.10894">
        <ele>315.51</ele>
        <time>2016-10-08T16:31:15Z</time>
      </trkpt>
      <trkpt lat="43.72586" lon="7.10919">
        <ele>316.04</ele>
        <time>2016-10-08T16:31:18Z</time>
      </trkpt>
      <trkpt lat="43.72604" lon="7.10939">
        <ele>316.48</ele>
        <time>2016-10-08T16:31:21Z</time>
      </trkpt>
      <trkpt lat="43.72627" lon="7.10956">
        <ele>316.04</ele>
        <time>2016-10-08T16:31:24Z</time>
      </trkpt>
      <trkpt lat="43.7265" lon="7.10966">
        <ele>315.61</ele>
        <time>2016-10-08T16:31:27Z</time>
      </trkpt>
      <trkpt lat="43.72669" lon="7.10981">
        <ele>316.31</ele>
        <time>2016-10-08T16:31:30Z</time>
      </trkpt>
      <trkpt lat="43.72673" lon="7.11015">
        <ele>318.52</ele>
        <time>2016-10-08T16:31:33Z</time>
      </trkpt>
      <trkpt lat="43.72667" lon="7.11049">
        <ele>319.17</ele>
        <time>2016-10-08T16:31:36Z</time>
      </trkpt>
      <trkpt lat="43.72668" lon="7.11084">
        <ele>321.5</ele>
        <time>2016-10-08T16:31:39Z</time>
      </trkpt>
      <trkpt lat="43.72688" lon="7.1111">
        <ele>324.17</ele>
        <time>2016-10-08T16:31:42Z</time>
      </trkpt>
      <trkpt lat="43.72708" lon="7.11124">
        <ele>324.45</ele>
        <time>2016-10-08T16:31:44Z</time>
      </trkpt>
      <trkpt lat="43.72724" lon="7.11141">
        <ele>324.52</ele>
        <time>2016-10-08T16:31:46Z</time>
      </trkpt>
      <trkpt lat="43.72736" lon="7.11163">
        <ele>323.29</ele>
        <time>2016-10-08T16:31:48Z</time>
      </trkpt>
      <trkpt lat="43.72747" lon="7.11198">
        <ele>323.77</ele>
        <time>2016-10-08T16:31:51Z</time>
      </trkpt>
      <trkpt lat="43.72753" lon="7.11223">
        <ele>324.85</ele>
        <time>2016-10-08T16:31:53Z</time>
      </trkpt>
      <trkpt lat="43.72761" lon="7.11248">
        <ele>324.62</ele>
        <time>2016-10-08T16:31:55Z</time>
      </trkpt>
      <trkpt lat="43.72767" lon="7.11275">
        <ele>325.07</ele>
        <time>2016-10-08T16:31:57Z</time>
      </trkpt>
      <trkpt lat="43.72772" lon="7.11301">
        <ele>325.18</ele>
        <time>2016-10-08T16:31:59Z</time>
      </trkpt>
      <trkpt lat="43.72781" lon="7.11324">
        <ele>325.96</ele>
        <time>2016-10-08T16:32:01Z</time>
      </trkpt>
      <trkpt lat="43.72795" lon="7.11344">
        <ele>326.4</ele>
        <time>2016-10-08T16:32:03Z</time>
      </trkpt>
      <trkpt lat="43.72814" lon="7.11357">
        <ele>327.26</ele>
        <time>2016-10-08T16:32:05Z</time>
      </trkpt>
      <trkpt lat="43.72837" lon="7.11366">
        <ele>327.98</ele>
        <time>2016-10-08T16:32:07Z</time>
      </trkpt>
      <trkpt lat="43.72859" lon="7.11374">
        <ele>329.16</ele>
        <time>2016-10-08T16:32:09Z</time>
      </trkpt>
      <trkpt lat="43.72881" lon="7.11384">
        <ele>329.95</ele>
        <time>2016-10-08T16:32:11Z</time>
      </trkpt>
      <trkpt lat="43.72898" lon="7.11407">
        <ele>330.15</ele>
        <time>2016-10-08T16:32:13Z</time>
      </trkpt>
      <trkpt lat="43.7291" lon="7.11431">
        <ele>329.7</ele>
        <time>2016-10-08T16:32:15Z</time>
      </trkpt>
      <trkpt lat="43.7291" lon="7.11464">
        <ele>328.59</ele>
        <time>2016-10-08T16:32:17Z</time>
      </trkpt>
      <trkpt lat="43.72898" lon="7.11495">
        <ele>328.56</ele>
        <time>2016-10-08T16:32:19Z</time>
      </trkpt>
      <trkpt lat="43.7289" lon="7.11524">
        <ele>328.8</ele>
        <time>2016-10-08T16:32:21Z</time>
      </trkpt>
      <trkpt lat="43.72877" lon="7.11551">
        <ele>329.11</ele>
        <time>2016-10-08T16:32:23Z</time>
      </trkpt>
      <trkpt lat="43.72857" lon="7.11572">
        <ele>328.69</ele>
        <time>2016-10-08T16:32:25Z</time>
      </trkpt>
      <trkpt lat="43.72844" lon="7.11596">
        <ele>327.83</ele>
        <time>2016-10-08T16:32:27Z</time>
      </trkpt>
      <trkpt lat="43.72837" lon="7.11621">
        <ele>327.87</ele>
        <time>2016-10-08T16:32:29Z</time>
      </trkpt>
      <trkpt lat="43.72831" lon="7.11644">
        <ele>328.38</ele>
        <time>2016-10-08T16:32:31Z</time>
      </trkpt>
      <trkpt lat="43.72817" lon="7.11673">
        <ele>329.15</ele>
        <time>2016-10-08T16:32:34Z</time>
      </trkpt>
      <trkpt lat="43.7281" lon="7.11707">
        <ele>331.62</ele>
        <time>2016-10-08T16:32:37Z</time>
      </trkpt>
      <trkpt lat="43.72817" lon="7.11743">
        <ele>332.93</ele>
        <time>2016-10-08T16:32:40Z</time>
      </trkpt>
      <trkpt lat="43.72835" lon="7.11766">
        <ele>334.72</ele>
        <time>2016-10-08T16:32:43Z</time>
      </trkpt>
      <trkpt lat="43.72852" lon="7.11776">
        <ele>335.57</ele>
        <time>2016-10-08T16:32:46Z</time>
      </trkpt>
      <trkpt lat="43.7287" lon="7.1179">
        <ele>334.8</ele>
        <time>2016-10-08T16:32:48Z</time>
      </trkpt>
      <trkpt lat="43.72888" lon="7.118">
        <ele>333.86</ele>
        <time>2016-10-08T16:32:50Z</time>
      </trkpt>
      <trkpt lat="43.72909" lon="7.1181">
        <ele>333.07</ele>
        <time>2016-10-08T16:32:54Z</time>
      </trkpt>
      <trkpt lat="43.7293" lon="7.1182">
        <ele>335.58</ele>
        <time>2016-10-08T16:33:11Z</time>
      </trkpt>
      <trkpt lat="43.72948" lon="7.11827">
        <ele>337.3</ele>
        <time>2016-10-08T16:33:14Z</time>
      </trkpt>
      <trkpt lat="43.72971" lon="7.1184">
        <ele>337.02</ele>
        <time>2016-10-08T16:33:17Z</time>
      </trkpt>
      <trkpt lat="43.72988" lon="7.11848">
        <ele>336.17</ele>
        <time>2016-10-08T16:33:19Z</time>
      </trkpt>
      <trkpt lat="43.73016" lon="7.11858">
        <ele>334.38</ele>
        <time>2016-10-08T16:33:22Z</time>
      </trkpt>
      <trkpt lat="43.73039" lon="7.11856">
        <ele>333.75</ele>
        <time>2016-10-08T16:33:24Z</time>
      </trkpt>
      <trkpt lat="43.73066" lon="7.11853">
        <ele>333.6</ele>
        <time>2016-10-08T16:33:26Z</time>
      </trkpt>
      <trkpt lat="43.73092" lon="7.11849">
        <ele>332.81</ele>
        <time>2016-10-08T16:33:28Z</time>
      </trkpt>
      <trkpt lat="43.73114" lon="7.11845">
        <ele>332.11</ele>
        <time>2016-10-08T16:33:30Z</time>
      </trkpt>
      <trkpt lat="43.73137" lon="7.11841">
        <ele>333.19</ele>
        <time>2016-10-08T16:33:32Z</time>
      </trkpt>
      <trkpt lat="43.73162" lon="7.11848">
        <ele>333.71</ele>
        <time>2016-10-08T16:33:34Z</time>
      </trkpt>
      <trkpt lat="43.73187" lon="7.11863">
        <ele>333.84</ele>
        <time>2016-10-08T16:33:36Z</time>
      </trkpt>
      <trkpt lat="43.73195" lon="7.11897">
        <ele>332.12</ele>
        <time>2016-10-08T16:33:38Z</time>
      </trkpt>
      <trkpt lat="43.73211" lon="7.11923">
        <ele>332.19</ele>
        <time>2016-10-08T16:33:40Z</time>
      </trkpt>
      <trkpt lat="43.73227" lon="7.11945">
        <ele>332.46</ele>
        <time>2016-10-08T16:33:42Z</time>
      </trkpt>
      <trkpt lat="43.73244" lon="7.11967">
        <ele>331.28</ele>
        <time>2016-10-08T16:33:44Z</time>
      </trkpt>
      <trkpt lat="43.73258" lon="7.11987">
        <ele>329.73</ele>
        <time>2016-10-08T16:33:46Z</time>
      </trkpt>
      <trkpt lat="43.73273" lon="7.12014">
        <ele>328.34</ele>
        <time>2016-10-08T16:33:48Z</time>
      </trkpt>
      <trkpt lat="43.73281" lon="7.12044">
        <ele>327.75</ele>
        <time>2016-10-08T16:33:50Z</time>
      </trkpt>
      <trkpt lat="43.73295" lon="7.12073">
        <ele>327.6</ele>
        <time>2016-10-08T16:33:52Z</time>
      </trkpt>
      <trkpt lat="43.73314" lon="7.12095">
        <ele>327.31</ele>
        <time>2016-10-08T16:33:54Z</time>
      </trkpt>
      <trkpt lat="43.73331" lon="7.12117">
        <ele>326.49</ele>
        <time>2016-10-08T16:33:56Z</time>
      </trkpt>
      <trkpt lat="43.73349" lon="7.12138">
        <ele>327.03</ele>
        <time>2016-10-08T16:33:58Z</time>
      </trkpt>
      <trkpt lat="43.73371" lon="7.12156">
        <ele>327.42</ele>
        <time>2016-10-08T16:34:00Z</time>
      </trkpt>
      <trkpt lat="43.73391" lon="7.12171">
        <ele>327.02</ele>
        <time>2016-10-08T16:34:02Z</time>
      </trkpt>
      <trkpt lat="43.73408" lon="7.12194">
        <ele>326.41</ele>
        <time>2016-10-08T16:34:04Z</time>
      </trkpt>
      <trkpt lat="43.73419" lon="7.12225">
        <ele>326.51</ele>
        <time>2016-10-08T16:34:06Z</time>
      </trkpt>
      <trkpt lat="43.7343" lon="7.12256">
        <ele>327.04</ele>
        <time>2016-10-08T16:34:08Z</time>
      </trkpt>
      <trkpt lat="43.73449" lon="7.12273">
        <ele>326.67</ele>
        <time>2016-10-08T16:34:10Z</time>
      </trkpt>
      <trkpt lat="43.73471" lon="7.12293">
        <ele>327.08</ele>
        <time>2016-10-08T16:34:12Z</time>
      </trkpt>
      <trkpt lat="43.7349" lon="7.12306">
        <ele>328.68</ele>
        <time>2016-10-08T16:34:14Z</time>
      </trkpt>
      <trkpt lat="43.73515" lon="7.12308">
        <ele>328.58</ele>
        <time>2016-10-08T16:34:16Z</time>
      </trkpt>
      <trkpt lat="43.73539" lon="7.12307">
        <ele>327.81</ele>
        <time>2016-10-08T16:34:18Z</time>
      </trkpt>
      <trkpt lat="43.73563" lon="7.12317">
        <ele>326.11</ele>
        <time>2016-10-08T16:34:20Z</time>
      </trkpt>
      <trkpt lat="43.7358" lon="7.1234">
        <ele>325.19</ele>
        <time>2016-10-08T16:34:22Z</time>
      </trkpt>
      <trkpt lat="43.73597" lon="7.12368">
        <ele>323.71</ele>
        <time>2016-10-08T16:34:24Z</time>
      </trkpt>
      <trkpt lat="43.73613" lon="7.12391">
        <ele>323.34</ele>
        <time>2016-10-08T16:34:26Z</time>
      </trkpt>
      <trkpt lat="43.73632" lon="7.12405">
        <ele>323</ele>
        <time>2016-10-08T16:34:28Z</time>
      </trkpt>
      <trkpt lat="43.73654" lon="7.12413">
        <ele>322.41</ele>
        <time>2016-10-08T16:34:30Z</time>
      </trkpt>
      <trkpt lat="43.73656" lon="7.12446">
        <ele>322.26</ele>
        <time>2016-10-08T16:34:32Z</time>
      </trkpt>
      <trkpt lat="43.73656" lon="7.12478">
        <ele>320.98</ele>
        <time>2016-10-08T16:34:34Z</time>
      </trkpt>
      <trkpt lat="43.73649" lon="7.12511">
        <ele>321.41</ele>
        <time>2016-10-08T16:34:36Z</time>
      </trkpt>
      <trkpt lat="43.73644" lon="7.12543">
        <ele>321.51</ele>
        <time>2016-10-08T16:34:38Z</time>
      </trkpt>
      <trkpt lat="43.73641" lon="7.12575">
        <ele>322.29</ele>
        <time>2016-10-08T16:34:40Z</time>
      </trkpt>
      <trkpt lat="43.73647" lon="7.12606">
        <ele>321.73</ele>
        <time>2016-10-08T16:34:42Z</time>
      </trkpt>
      <trkpt lat="43.73653" lon="7.12639">
        <ele>321.59</ele>
        <time>2016-10-08T16:34:44Z</time>
      </trkpt>
      <trkpt lat="43.7366" lon="7.1267">
        <ele>322.31</ele>
        <time>2016-10-08T16:34:46Z</time>
      </trkpt>
      <trkpt lat="43.73673" lon="7.12699">
        <ele>322.49</ele>
        <time>2016-10-08T16:34:48Z</time>
      </trkpt>
      <trkpt lat="43.73688" lon="7.12724">
        <ele>322.53</ele>
        <time>2016-10-08T16:34:50Z</time>
      </trkpt>
      <trkpt lat="43.73705" lon="7.1275">
        <ele>322.29</ele>
        <time>2016-10-08T16:34:52Z</time>
      </trkpt>
      <trkpt lat="43.7372" lon="7.1278">
        <ele>321.73</ele>
        <time>2016-10-08T16:34:54Z</time>
      </trkpt>
      <trkpt lat="43.73734" lon="7.12812">
        <ele>321.59</ele>
        <time>2016-10-08T16:34:56Z</time>
      </trkpt>
      <trkpt lat="43.73746" lon="7.12841">
        <ele>320.81</ele>
        <time>2016-10-08T16:34:58Z</time>
      </trkpt>
      <trkpt lat="43.73751" lon="7.12874">
        <ele>321.61</ele>
        <time>2016-10-08T16:35:00Z</time>
      </trkpt>
      <trkpt lat="43.73756" lon="7.12907">
        <ele>321.81</ele>
        <time>2016-10-08T16:35:02Z</time>
      </trkpt>
      <trkpt lat="43.73757" lon="7.12944">
        <ele>321.11</ele>
        <time>2016-10-08T16:35:04Z</time>
      </trkpt>
      <trkpt lat="43.73764" lon="7.12979">
        <ele>320.69</ele>
        <time>2016-10-08T16:35:06Z</time>
      </trkpt>
      <trkpt lat="43.73772" lon="7.13011">
        <ele>320.08</ele>
        <time>2016-10-08T16:35:08Z</time>
      </trkpt>
      <trkpt lat="43.73786" lon="7.13038">
        <ele>319.93</ele>
        <time>2016-10-08T16:35:10Z</time>
      </trkpt>
      <trkpt lat="43.73807" lon="7.13064">
        <ele>319.14</ele>
        <time>2016-10-08T16:35:12Z</time>
      </trkpt>
      <trkpt lat="43.73831" lon="7.13075">
        <ele>319.2</ele>
        <time>2016-10-08T16:35:14Z</time>
      </trkpt>
      <trkpt lat="43.73856" lon="7.13078">
        <ele>320.21</ele>
        <time>2016-10-08T16:35:16Z</time>
      </trkpt>
      <trkpt lat="43.7388" lon="7.13088">
        <ele>320.21</ele>
        <time>2016-10-08T16:35:18Z</time>
      </trkpt>
      <trkpt lat="43.73896" lon="7.13117">
        <ele>319.21</ele>
        <time>2016-10-08T16:35:20Z</time>
      </trkpt>
      <trkpt lat="43.73907" lon="7.13149">
        <ele>318.71</ele>
        <time>2016-10-08T16:35:22Z</time>
      </trkpt>
      <trkpt lat="43.73921" lon="7.13174">
        <ele>316.59</ele>
        <time>2016-10-08T16:35:24Z</time>
      </trkpt>
      <trkpt lat="43.73946" lon="7.13187">
        <ele>315.56</ele>
        <time>2016-10-08T16:35:26Z</time>
      </trkpt>
      <trkpt lat="43.73971" lon="7.132">
        <ele>314.3</ele>
        <time>2016-10-08T16:35:28Z</time>
      </trkpt>
      <trkpt lat="43.73996" lon="7.13199">
        <ele>314.49</ele>
        <time>2016-10-08T16:35:30Z</time>
      </trkpt>
      <trkpt lat="43.7402" lon="7.13189">
        <ele>314.53</ele>
        <time>2016-10-08T16:35:32Z</time>
      </trkpt>
      <trkpt lat="43.74046" lon="7.1319">
        <ele>315.04</ele>
        <time>2016-10-08T16:35:34Z</time>
      </trkpt>
      <trkpt lat="43.74073" lon="7.132">
        <ele>315.92</ele>
        <time>2016-10-08T16:35:36Z</time>
      </trkpt>
      <trkpt lat="43.74099" lon="7.13209">
        <ele>316.39</ele>
        <time>2016-10-08T16:35:38Z</time>
      </trkpt>
      <trkpt lat="43.74124" lon="7.13215">
        <ele>315.76</ele>
        <time>2016-10-08T16:35:40Z</time>
      </trkpt>
      <trkpt lat="43.74152" lon="7.13217">
        <ele>317.35</ele>
        <time>2016-10-08T16:35:42Z</time>
      </trkpt>
      <trkpt lat="43.74181" lon="7.13223">
        <ele>319.25</ele>
        <time>2016-10-08T16:35:44Z</time>
      </trkpt>
      <trkpt lat="43.74207" lon="7.1323">
        <ele>320.22</ele>
        <time>2016-10-08T16:35:46Z</time>
      </trkpt>
      <trkpt lat="43.74233" lon="7.13241">
        <ele>319.22</ele>
        <time>2016-10-08T16:35:48Z</time>
      </trkpt>
      <trkpt lat="43.74258" lon="7.13252">
        <ele>318.72</ele>
        <time>2016-10-08T16:35:50Z</time>
      </trkpt>
      <trkpt lat="43.74284" lon="7.13258">
        <ele>317.59</ele>
        <time>2016-10-08T16:35:52Z</time>
      </trkpt>
      <trkpt lat="43.74308" lon="7.1325">
        <ele>317.56</ele>
        <time>2016-10-08T16:35:54Z</time>
      </trkpt>
      <trkpt lat="43.7433" lon="7.13232">
        <ele>317.8</ele>
        <time>2016-10-08T16:35:56Z</time>
      </trkpt>
      <trkpt lat="43.74338" lon="7.13196">
        <ele>317.61</ele>
        <time>2016-10-08T16:35:58Z</time>
      </trkpt>
      <trkpt lat="43.74352" lon="7.13159">
        <ele>317.56</ele>
        <time>2016-10-08T16:36:00Z</time>
      </trkpt>
      <trkpt lat="43.74357" lon="7.13121">
        <ele>318.8</ele>
        <time>2016-10-08T16:36:02Z</time>
      </trkpt>
      <trkpt lat="43.74389" lon="7.13106">
        <ele>322.45</ele>
        <time>2016-10-08T16:36:05Z</time>
      </trkpt>
      <trkpt lat="43.74408" lon="7.13109">
        <ele>322.5</ele>
        <time>2016-10-08T16:36:06Z</time>
      </trkpt>
      <trkpt lat="43.74434" lon="7.13101">
        <ele>323.29</ele>
        <time>2016-10-08T16:36:08Z</time>
      </trkpt>
      <trkpt lat="43.74456" lon="7.13088">
        <ele>323.48</ele>
        <time>2016-10-08T16:36:10Z</time>
      </trkpt>
      <trkpt lat="43.74483" lon="7.13081">
        <ele>323.03</ele>
        <time>2016-10-08T16:36:12Z</time>
      </trkpt>
      <trkpt lat="43.74509" lon="7.13075">
        <ele>321.42</ele>
        <time>2016-10-08T16:36:14Z</time>
      </trkpt>
      <trkpt lat="43.74536" lon="7.13065">
        <ele>318.77</ele>
        <time>2016-10-08T16:36:16Z</time>
      </trkpt>
      <trkpt lat="43.74561" lon="7.1307">
        <ele>317.6</ele>
        <time>2016-10-08T16:36:18Z</time>
      </trkpt>
      <trkpt lat="43.74581" lon="7.13086">
        <ele>316.81</ele>
        <time>2016-10-08T16:36:20Z</time>
      </trkpt>
      <trkpt lat="43.74607" lon="7.13101">
        <ele>316.11</ele>
        <time>2016-10-08T16:36:22Z</time>
      </trkpt>
      <trkpt lat="43.74635" lon="7.13107">
        <ele>317.69</ele>
        <time>2016-10-08T16:36:24Z</time>
      </trkpt>
      <trkpt lat="43.74661" lon="7.13094">
        <ele>318.08</ele>
        <time>2016-10-08T16:36:26Z</time>
      </trkpt>
      <trkpt lat="43.74682" lon="7.13072">
        <ele>317.93</ele>
        <time>2016-10-08T16:36:28Z</time>
      </trkpt>
      <trkpt lat="43.74702" lon="7.13051">
        <ele>318.14</ele>
        <time>2016-10-08T16:36:30Z</time>
      </trkpt>
      <trkpt lat="43.74729" lon="7.13036">
        <ele>317.2</ele>
        <time>2016-10-08T16:36:32Z</time>
      </trkpt>
      <trkpt lat="43.74754" lon="7.1303">
        <ele>316.46</ele>
        <time>2016-10-08T16:36:34Z</time>
      </trkpt>
      <trkpt lat="43.74782" lon="7.13025">
        <ele>315.03</ele>
        <time>2016-10-08T16:36:36Z</time>
      </trkpt>
      <trkpt lat="43.7481" lon="7.1302">
        <ele>314.67</ele>
        <time>2016-10-08T16:36:38Z</time>
      </trkpt>
      <trkpt lat="43.74834" lon="7.13008">
        <ele>316.08</ele>
        <time>2016-10-08T16:36:40Z</time>
      </trkpt>
      <trkpt lat="43.74857" lon="7.12996">
        <ele>315.43</ele>
        <time>2016-10-08T16:36:42Z</time>
      </trkpt>
      <trkpt lat="43.74876" lon="7.12986">
        <ele>315.02</ele>
        <time>2016-10-08T16:36:44Z</time>
      </trkpt>
      <trkpt lat="43.749" lon="7.12981">
        <ele>312.86</ele>
        <time>2016-10-08T16:36:47Z</time>
      </trkpt>
      <trkpt lat="43.74916" lon="7.13002">
        <ele>311.21</ele>
        <time>2016-10-08T16:36:50Z</time>
      </trkpt>
      <trkpt lat="43.74926" lon="7.13033">
        <ele>311.88</ele>
        <time>2016-10-08T16:36:53Z</time>
      </trkpt>
      <trkpt lat="43.74927" lon="7.13059">
        <ele>311.84</ele>
        <time>2016-10-08T16:36:56Z</time>
      </trkpt>
      <trkpt lat="43.74948" lon="7.13063">
        <ele>311.56</ele>
        <time>2016-10-08T16:37:01Z</time>
      </trkpt>
      <trkpt lat="43.74965" lon="7.1305">
        <ele>312.72</ele>
        <time>2016-10-08T16:37:07Z</time>
      </trkpt>
      <trkpt lat="43.74986" lon="7.13038">
        <ele>312.92</ele>
        <time>2016-10-08T16:37:56Z</time>
      </trkpt>
      <trkpt lat="43.75007" lon="7.13028">
        <ele>314.38</ele>
        <time>2016-10-08T16:38:00Z</time>
      </trkpt>
      <trkpt lat="43.75024" lon="7.13021">
        <ele>316.16</ele>
        <time>2016-10-08T16:38:04Z</time>
      </trkpt>
      <trkpt lat="43.75044" lon="7.13023">
        <ele>316.22</ele>
        <time>2016-10-08T16:38:09Z</time>
      </trkpt>
      <trkpt lat="43.75063" lon="7.13021">
        <ele>315.6</ele>
        <time>2016-10-08T16:38:14Z</time>
      </trkpt>
      <trkpt lat="43.75082" lon="7.13008">
        <ele>313.61</ele>
        <time>2016-10-08T16:38:19Z</time>
      </trkpt>
      <trkpt lat="43.75098" lon="7.12993">
        <ele>314.31</ele>
        <time>2016-10-08T16:38:23Z</time>
      </trkpt>
      <trkpt lat="43.75117" lon="7.12985">
        <ele>317.67</ele>
        <time>2016-10-08T16:38:28Z</time>
      </trkpt>
      <trkpt lat="43.75101" lon="7.13001">
        <ele>314.72</ele>
        <time>2016-10-08T16:41:36Z</time>
      </trkpt>
      <trkpt lat="43.75084" lon="7.13012">
        <ele>315.65</ele>
        <time>2016-10-08T16:41:41Z</time>
      </trkpt>
      <trkpt lat="43.75064" lon="7.13018">
        <ele>317.97</ele>
        <time>2016-10-08T16:41:47Z</time>
      </trkpt>
      <trkpt lat="43.75045" lon="7.13015">
        <ele>316.09</ele>
        <time>2016-10-08T16:41:53Z</time>
      </trkpt>
      <trkpt lat="43.75024" lon="7.13015">
        <ele>313.78</ele>
        <time>2016-10-08T16:41:59Z</time>
      </trkpt>
      <trkpt lat="43.75004" lon="7.13026">
        <ele>309.29</ele>
        <time>2016-10-08T16:42:05Z</time>
      </trkpt>
      <trkpt lat="43.74986" lon="7.13039">
        <ele>310.13</ele>
        <time>2016-10-08T16:42:10Z</time>
      </trkpt>
      <trkpt lat="43.74968" lon="7.13051">
        <ele>307.41</ele>
        <time>2016-10-08T16:42:15Z</time>
      </trkpt>
      <trkpt lat="43.7495" lon="7.1306">
        <ele>307.11</ele>
        <time>2016-10-08T16:42:21Z</time>
      </trkpt>
      <trkpt lat="43.74934" lon="7.13047">
        <ele>303.92</ele>
        <time>2016-10-08T16:42:41Z</time>
      </trkpt>
      <trkpt lat="43.74927" lon="7.13018">
        <ele>301.34</ele>
        <time>2016-10-08T16:42:44Z</time>
      </trkpt>
      <trkpt lat="43.7492" lon="7.12992">
        <ele>300.75</ele>
        <time>2016-10-08T16:42:46Z</time>
      </trkpt>
      <trkpt lat="43.74901" lon="7.12969">
        <ele>301.82</ele>
        <time>2016-10-08T16:42:49Z</time>
      </trkpt>
      <trkpt lat="43.7488" lon="7.12974">
        <ele>301.87</ele>
        <time>2016-10-08T16:42:51Z</time>
      </trkpt>
      <trkpt lat="43.74855" lon="7.12985">
        <ele>301.13</ele>
        <time>2016-10-08T16:42:53Z</time>
      </trkpt>
      <trkpt lat="43.7483" lon="7.12998">
        <ele>301.19</ele>
        <time>2016-10-08T16:42:55Z</time>
      </trkpt>
      <trkpt lat="43.74803" lon="7.13007">
        <ele>302.71</ele>
        <time>2016-10-08T16:42:57Z</time>
      </trkpt>
      <trkpt lat="43.74777" lon="7.13014">
        <ele>304.09</ele>
        <time>2016-10-08T16:42:59Z</time>
      </trkpt>
      <trkpt lat="43.74753" lon="7.13019">
        <ele>304.43</ele>
        <time>2016-10-08T16:43:01Z</time>
      </trkpt>
      <trkpt lat="43.74727" lon="7.13026">
        <ele>305.27</ele>
        <time>2016-10-08T16:43:03Z</time>
      </trkpt>
      <trkpt lat="43.74702" lon="7.13037">
        <ele>305.48</ele>
        <time>2016-10-08T16:43:05Z</time>
      </trkpt>
      <trkpt lat="43.7468" lon="7.13063">
        <ele>306.03</ele>
        <time>2016-10-08T16:43:07Z</time>
      </trkpt>
      <trkpt lat="43.7466" lon="7.13077">
        <ele>304.67</ele>
        <time>2016-10-08T16:43:09Z</time>
      </trkpt>
      <trkpt lat="43.74637" lon="7.13091">
        <ele>303.83</ele>
        <time>2016-10-08T16:43:11Z</time>
      </trkpt>
      <trkpt lat="43.74612" lon="7.13092">
        <ele>302.87</ele>
        <time>2016-10-08T16:43:13Z</time>
      </trkpt>
      <trkpt lat="43.74585" lon="7.13079">
        <ele>303.13</ele>
        <time>2016-10-08T16:43:15Z</time>
      </trkpt>
      <trkpt lat="43.74562" lon="7.13064">
        <ele>303.44</ele>
        <time>2016-10-08T16:43:17Z</time>
      </trkpt>
      <trkpt lat="43.74534" lon="7.13059">
        <ele>303.02</ele>
        <time>2016-10-08T16:43:19Z</time>
      </trkpt>
      <trkpt lat="43.74505" lon="7.13069">
        <ele>302.67</ele>
        <time>2016-10-08T16:43:21Z</time>
      </trkpt>
      <trkpt lat="43.74474" lon="7.13073">
        <ele>303.58</ele>
        <time>2016-10-08T16:43:23Z</time>
      </trkpt>
      <trkpt lat="43.74447" lon="7.1308">
        <ele>303.06</ele>
        <time>2016-10-08T16:43:25Z</time>
      </trkpt>
      <trkpt lat="43.74424" lon="7.13095">
        <ele>303.92</ele>
        <time>2016-10-08T16:43:27Z</time>
      </trkpt>
      <trkpt lat="43.74402" lon="7.13106">
        <ele>305.14</ele>
        <time>2016-10-08T16:43:29Z</time>
      </trkpt>
      <trkpt lat="43.7438" lon="7.13109">
        <ele>305.45</ele>
        <time>2016-10-08T16:43:31Z</time>
      </trkpt>
      <trkpt lat="43.74356" lon="7.13123">
        <ele>305.02</ele>
        <time>2016-10-08T16:43:33Z</time>
      </trkpt>
      <trkpt lat="43.74332" lon="7.13143">
        <ele>304.67</ele>
        <time>2016-10-08T16:43:35Z</time>
      </trkpt>
      <trkpt lat="43.74332" lon="7.13185">
        <ele>305.08</ele>
        <time>2016-10-08T16:43:37Z</time>
      </trkpt>
      <trkpt lat="43.74318" lon="7.13218">
        <ele>308.18</ele>
        <time>2016-10-08T16:43:39Z</time>
      </trkpt>
      <trkpt lat="43.74304" lon="7.1324">
        <ele>308.96</ele>
        <time>2016-10-08T16:43:41Z</time>
      </trkpt>
      <trkpt lat="43.74285" lon="7.13252">
        <ele>306.9</ele>
        <time>2016-10-08T16:43:43Z</time>
      </trkpt>
      <trkpt lat="43.74256" lon="7.13249">
        <ele>308.64</ele>
        <time>2016-10-08T16:43:45Z</time>
      </trkpt>
      <trkpt lat="43.74238" lon="7.13243">
        <ele>309.09</ele>
        <time>2016-10-08T16:43:46Z</time>
      </trkpt>
      <trkpt lat="43.74206" lon="7.13232">
        <ele>309.43</ele>
        <time>2016-10-08T16:43:48Z</time>
      </trkpt>
      <trkpt lat="43.74176" lon="7.13225">
        <ele>310.77</ele>
        <time>2016-10-08T16:43:50Z</time>
      </trkpt>
      <trkpt lat="43.74145" lon="7.13219">
        <ele>311.35</ele>
        <time>2016-10-08T16:43:52Z</time>
      </trkpt>
      <trkpt lat="43.74115" lon="7.13213">
        <ele>312</ele>
        <time>2016-10-08T16:43:54Z</time>
      </trkpt>
      <trkpt lat="43.74084" lon="7.13204">
        <ele>311.16</ele>
        <time>2016-10-08T16:43:56Z</time>
      </trkpt>
      <trkpt lat="43.74054" lon="7.13193">
        <ele>311.2</ele>
        <time>2016-10-08T16:43:58Z</time>
      </trkpt>
      <trkpt lat="43.74025" lon="7.13188">
        <ele>311.96</ele>
        <time>2016-10-08T16:44:00Z</time>
      </trkpt>
      <trkpt lat="43.73998" lon="7.13194">
        <ele>312.9</ele>
        <time>2016-10-08T16:44:02Z</time>
      </trkpt>
      <trkpt lat="43.73971" lon="7.13196">
        <ele>313.64</ele>
        <time>2016-10-08T16:44:04Z</time>
      </trkpt>
      <trkpt lat="43.7394" lon="7.13183">
        <ele>315.32</ele>
        <time>2016-10-08T16:44:06Z</time>
      </trkpt>
      <trkpt lat="43.73917" lon="7.13166">
        <ele>316.49</ele>
        <time>2016-10-08T16:44:08Z</time>
      </trkpt>
      <trkpt lat="43.73903" lon="7.13141">
        <ele>316.78</ele>
        <time>2016-10-08T16:44:10Z</time>
      </trkpt>
      <trkpt lat="43.73893" lon="7.13109">
        <ele>317.36</ele>
        <time>2016-10-08T16:44:12Z</time>
      </trkpt>
      <trkpt lat="43.73876" lon="7.13085">
        <ele>317.5</ele>
        <time>2016-10-08T16:44:14Z</time>
      </trkpt>
      <trkpt lat="43.73849" lon="7.13075">
        <ele>318.79</ele>
        <time>2016-10-08T16:44:16Z</time>
      </trkpt>
      <trkpt lat="43.73826" lon="7.1307">
        <ele>319.86</ele>
        <time>2016-10-08T16:44:18Z</time>
      </trkpt>
      <trkpt lat="43.73803" lon="7.13057">
        <ele>320.38</ele>
        <time>2016-10-08T16:44:20Z</time>
      </trkpt>
      <trkpt lat="43.73786" lon="7.13031">
        <ele>319.75</ele>
        <time>2016-10-08T16:44:22Z</time>
      </trkpt>
      <trkpt lat="43.73771" lon="7.12997">
        <ele>318.85</ele>
        <time>2016-10-08T16:44:24Z</time>
      </trkpt>
      <trkpt lat="43.73765" lon="7.12961">
        <ele>319.87</ele>
        <time>2016-10-08T16:44:26Z</time>
      </trkpt>
      <trkpt lat="43.73759" lon="7.12919">
        <ele>320.38</ele>
        <time>2016-10-08T16:44:28Z</time>
      </trkpt>
      <trkpt lat="43.73754" lon="7.12878">
        <ele>320.51</ele>
        <time>2016-10-08T16:44:30Z</time>
      </trkpt>
      <trkpt lat="43.73748" lon="7.12836">
        <ele>320.54</ele>
        <time>2016-10-08T16:44:32Z</time>
      </trkpt>
      <trkpt lat="43.73733" lon="7.12802">
        <ele>321.3</ele>
        <time>2016-10-08T16:44:34Z</time>
      </trkpt>
      <trkpt lat="43.73716" lon="7.12768">
        <ele>320.98</ele>
        <time>2016-10-08T16:44:36Z</time>
      </trkpt>
      <trkpt lat="43.73699" lon="7.12736">
        <ele>319.91</ele>
        <time>2016-10-08T16:44:38Z</time>
      </trkpt>
      <trkpt lat="43.73678" lon="7.12707">
        <ele>317.89</ele>
        <time>2016-10-08T16:44:40Z</time>
      </trkpt>
      <trkpt lat="43.73666" lon="7.12672">
        <ele>317.13</ele>
        <time>2016-10-08T16:44:42Z</time>
      </trkpt>
      <trkpt lat="43.73659" lon="7.12634">
        <ele>316.19</ele>
        <time>2016-10-08T16:44:44Z</time>
      </trkpt>
      <trkpt lat="43.73646" lon="7.12596">
        <ele>316.21</ele>
        <time>2016-10-08T16:44:46Z</time>
      </trkpt>
      <trkpt lat="43.73645" lon="7.12559">
        <ele>315.21</ele>
        <time>2016-10-08T16:44:48Z</time>
      </trkpt>
      <trkpt lat="43.73651" lon="7.12522">
        <ele>315.21</ele>
        <time>2016-10-08T16:44:50Z</time>
      </trkpt>
      <trkpt lat="43.73657" lon="7.12487">
        <ele>315.71</ele>
        <time>2016-10-08T16:44:52Z</time>
      </trkpt>
      <trkpt lat="43.73661" lon="7.12451">
        <ele>315.34</ele>
        <time>2016-10-08T16:44:54Z</time>
      </trkpt>
      <trkpt lat="43.73655" lon="7.12418">
        <ele>315.5</ele>
        <time>2016-10-08T16:44:56Z</time>
      </trkpt>
      <trkpt lat="43.73633" lon="7.12396">
        <ele>317.28</ele>
        <time>2016-10-08T16:44:58Z</time>
      </trkpt>
      <trkpt lat="43.73611" lon="7.12381">
        <ele>317.23</ele>
        <time>2016-10-08T16:45:00Z</time>
      </trkpt>
      <trkpt lat="43.7359" lon="7.12354">
        <ele>317.97</ele>
        <time>2016-10-08T16:45:02Z</time>
      </trkpt>
      <trkpt lat="43.73573" lon="7.12327">
        <ele>318.4</ele>
        <time>2016-10-08T16:45:04Z</time>
      </trkpt>
      <trkpt lat="43.73556" lon="7.12305">
        <ele>318.26</ele>
        <time>2016-10-08T16:45:06Z</time>
      </trkpt>
      <trkpt lat="43.73531" lon="7.12301">
        <ele>318.73</ele>
        <time>2016-10-08T16:45:08Z</time>
      </trkpt>
      <trkpt lat="43.73504" lon="7.12299">
        <ele>319.84</ele>
        <time>2016-10-08T16:45:10Z</time>
      </trkpt>
      <trkpt lat="43.73481" lon="7.12287">
        <ele>321.37</ele>
        <time>2016-10-08T16:45:12Z</time>
      </trkpt>
      <trkpt lat="43.73456" lon="7.12267">
        <ele>323.75</ele>
        <time>2016-10-08T16:45:14Z</time>
      </trkpt>
      <trkpt lat="43.73437" lon="7.12248">
        <ele>325.35</ele>
        <time>2016-10-08T16:45:16Z</time>
      </trkpt>
      <trkpt lat="43.73422" lon="7.12223">
        <ele>324.75</ele>
        <time>2016-10-08T16:45:18Z</time>
      </trkpt>
      <trkpt lat="43.73409" lon="7.12193">
        <ele>324.1</ele>
        <time>2016-10-08T16:45:20Z</time>
      </trkpt>
      <trkpt lat="43.73392" lon="7.12166">
        <ele>324.94</ele>
        <time>2016-10-08T16:45:22Z</time>
      </trkpt>
      <trkpt lat="43.7337" lon="7.12147">
        <ele>325.39</ele>
        <time>2016-10-08T16:45:24Z</time>
      </trkpt>
      <trkpt lat="43.73347" lon="7.12126">
        <ele>326.26</ele>
        <time>2016-10-08T16:45:26Z</time>
      </trkpt>
      <trkpt lat="43.73325" lon="7.12106">
        <ele>327.23</ele>
        <time>2016-10-08T16:45:28Z</time>
      </trkpt>
      <trkpt lat="43.73305" lon="7.12085">
        <ele>327.47</ele>
        <time>2016-10-08T16:45:30Z</time>
      </trkpt>
      <trkpt lat="43.73291" lon="7.12058">
        <ele>326.78</ele>
        <time>2016-10-08T16:45:32Z</time>
      </trkpt>
      <trkpt lat="43.73282" lon="7.12025">
        <ele>324.36</ele>
        <time>2016-10-08T16:45:34Z</time>
      </trkpt>
      <trkpt lat="43.73272" lon="7.11996">
        <ele>324</ele>
        <time>2016-10-08T16:45:36Z</time>
      </trkpt>
      <trkpt lat="43.73257" lon="7.11976">
        <ele>321.41</ele>
        <time>2016-10-08T16:45:38Z</time>
      </trkpt>
      <trkpt lat="43.73237" lon="7.11955">
        <ele>321.76</ele>
        <time>2016-10-08T16:45:40Z</time>
      </trkpt>
      <trkpt lat="43.7322" lon="7.11928">
        <ele>323.6</ele>
        <time>2016-10-08T16:45:42Z</time>
      </trkpt>
      <trkpt lat="43.73202" lon="7.11901">
        <ele>325.06</ele>
        <time>2016-10-08T16:45:44Z</time>
      </trkpt>
      <trkpt lat="43.73184" lon="7.11874">
        <ele>325.43</ele>
        <time>2016-10-08T16:45:46Z</time>
      </trkpt>
      <trkpt lat="43.73164" lon="7.1185">
        <ele>325.52</ele>
        <time>2016-10-08T16:45:48Z</time>
      </trkpt>
      <trkpt lat="43.73145" lon="7.11834">
        <ele>325.29</ele>
        <time>2016-10-08T16:45:50Z</time>
      </trkpt>
      <trkpt lat="43.73116" lon="7.11841">
        <ele>325.48</ele>
        <time>2016-10-08T16:45:52Z</time>
      </trkpt>
      <trkpt lat="43.73088" lon="7.11845">
        <ele>326.03</ele>
        <time>2016-10-08T16:45:54Z</time>
      </trkpt>
      <trkpt lat="43.73057" lon="7.11851">
        <ele>326.92</ele>
        <time>2016-10-08T16:45:56Z</time>
      </trkpt>
      <trkpt lat="43.73029" lon="7.11856">
        <ele>326.64</ele>
        <time>2016-10-08T16:45:58Z</time>
      </trkpt>
      <trkpt lat="43.73003" lon="7.11854">
        <ele>325.07</ele>
        <time>2016-10-08T16:46:00Z</time>
      </trkpt>
      <trkpt lat="43.72972" lon="7.11849">
        <ele>325.18</ele>
        <time>2016-10-08T16:46:02Z</time>
      </trkpt>
      <trkpt lat="43.72956" lon="7.11837">
        <ele>324.86</ele>
        <time>2016-10-08T16:46:03Z</time>
      </trkpt>
      <trkpt lat="43.72934" lon="7.11822">
        <ele>324.63</ele>
        <time>2016-10-08T16:46:05Z</time>
      </trkpt>
      <trkpt lat="43.72914" lon="7.11807">
        <ele>325.57</ele>
        <time>2016-10-08T16:46:07Z</time>
      </trkpt>
      <trkpt lat="43.7289" lon="7.11791">
        <ele>327.55</ele>
        <time>2016-10-08T16:46:09Z</time>
      </trkpt>
      <trkpt lat="43.72865" lon="7.11774">
        <ele>328.3</ele>
        <time>2016-10-08T16:46:11Z</time>
      </trkpt>
      <trkpt lat="43.72844" lon="7.11764">
        <ele>328.49</ele>
        <time>2016-10-08T16:46:13Z</time>
      </trkpt>
      <trkpt lat="43.72826" lon="7.1175">
        <ele>327.04</ele>
        <time>2016-10-08T16:46:16Z</time>
      </trkpt>
      <trkpt lat="43.72808" lon="7.11736">
        <ele>326.92</ele>
        <time>2016-10-08T16:46:18Z</time>
      </trkpt>
      <trkpt lat="43.7281" lon="7.11702">
        <ele>327.39</ele>
        <time>2016-10-08T16:46:20Z</time>
      </trkpt>
      <trkpt lat="43.72825" lon="7.11664">
        <ele>328.01</ele>
        <time>2016-10-08T16:46:22Z</time>
      </trkpt>
      <trkpt lat="43.72837" lon="7.11631">
        <ele>329.16</ele>
        <time>2016-10-08T16:46:24Z</time>
      </trkpt>
      <trkpt lat="43.72847" lon="7.11596">
        <ele>330.2</ele>
        <time>2016-10-08T16:46:26Z</time>
      </trkpt>
      <trkpt lat="43.72865" lon="7.11569">
        <ele>330.21</ele>
        <time>2016-10-08T16:46:28Z</time>
      </trkpt>
      <trkpt lat="43.72882" lon="7.1154">
        <ele>331.21</ele>
        <time>2016-10-08T16:46:30Z</time>
      </trkpt>
      <trkpt lat="43.72895" lon="7.11508">
        <ele>332.21</ele>
        <time>2016-10-08T16:46:32Z</time>
      </trkpt>
      <trkpt lat="43.72901" lon="7.1147">
        <ele>332.46</ele>
        <time>2016-10-08T16:46:34Z</time>
      </trkpt>
      <trkpt lat="43.72904" lon="7.11434">
        <ele>332.03</ele>
        <time>2016-10-08T16:46:36Z</time>
      </trkpt>
      <trkpt lat="43.72898" lon="7.11398">
        <ele>330.92</ele>
        <time>2016-10-08T16:46:38Z</time>
      </trkpt>
      <trkpt lat="43.72878" lon="7.11374">
        <ele>329.64</ele>
        <time>2016-10-08T16:46:40Z</time>
      </trkpt>
      <trkpt lat="43.72861" lon="7.11359">
        <ele>327.07</ele>
        <time>2016-10-08T16:46:42Z</time>
      </trkpt>
      <trkpt lat="43.72842" lon="7.11356">
        <ele>327.43</ele>
        <time>2016-10-08T16:46:44Z</time>
      </trkpt>
      <trkpt lat="43.72813" lon="7.11347">
        <ele>328.27</ele>
        <time>2016-10-08T16:46:46Z</time>
      </trkpt>
      <trkpt lat="43.72785" lon="7.11332">
        <ele>328.98</ele>
        <time>2016-10-08T16:46:48Z</time>
      </trkpt>
      <trkpt lat="43.72771" lon="7.11308">
        <ele>329.16</ele>
        <time>2016-10-08T16:46:50Z</time>
      </trkpt>
      <trkpt lat="43.72763" lon="7.11273">
        <ele>329.7</ele>
        <time>2016-10-08T16:46:52Z</time>
      </trkpt>
      <trkpt lat="43.72756" lon="7.1124">
        <ele>330.34</ele>
        <time>2016-10-08T16:46:54Z</time>
      </trkpt>
      <trkpt lat="43.72745" lon="7.11202">
        <ele>330.24</ele>
        <time>2016-10-08T16:46:56Z</time>
      </trkpt>
      <trkpt lat="43.72736" lon="7.11168">
        <ele>330.97</ele>
        <time>2016-10-08T16:46:58Z</time>
      </trkpt>
      <trkpt lat="43.72728" lon="7.1114">
        <ele>330.15</ele>
        <time>2016-10-08T16:47:00Z</time>
      </trkpt>
      <trkpt lat="43.72713" lon="7.11125">
        <ele>327.45</ele>
        <time>2016-10-08T16:47:02Z</time>
      </trkpt>
      <trkpt lat="43.72693" lon="7.11108">
        <ele>325.27</ele>
        <time>2016-10-08T16:47:04Z</time>
      </trkpt>
      <trkpt lat="43.72675" lon="7.11094">
        <ele>325.48</ele>
        <time>2016-10-08T16:47:06Z</time>
      </trkpt>
      <trkpt lat="43.72663" lon="7.11058">
        <ele>323.16</ele>
        <time>2016-10-08T16:47:09Z</time>
      </trkpt>
      <trkpt lat="43.72672" lon="7.11028">
        <ele>323.45</ele>
        <time>2016-10-08T16:47:11Z</time>
      </trkpt>
      <trkpt lat="43.72674" lon="7.11001">
        <ele>324.27</ele>
        <time>2016-10-08T16:47:13Z</time>
      </trkpt>
      <trkpt lat="43.72667" lon="7.10974">
        <ele>325.23</ele>
        <time>2016-10-08T16:47:15Z</time>
      </trkpt>
      <trkpt lat="43.72644" lon="7.10952">
        <ele>325.76</ele>
        <time>2016-10-08T16:47:18Z</time>
      </trkpt>
      <trkpt lat="43.72624" lon="7.10942">
        <ele>325.85</ele>
        <time>2016-10-08T16:47:20Z</time>
      </trkpt>
      <trkpt lat="43.72606" lon="7.10931">
        <ele>325.87</ele>
        <time>2016-10-08T16:47:22Z</time>
      </trkpt>
      <trkpt lat="43.72591" lon="7.1091">
        <ele>324.13</ele>
        <time>2016-10-08T16:47:24Z</time>
      </trkpt>
      <trkpt lat="43.72576" lon="7.10889">
        <ele>322.69</ele>
        <time>2016-10-08T16:47:26Z</time>
      </trkpt>
      <trkpt lat="43.72575" lon="7.10856">
        <ele>320.07</ele>
        <time>2016-10-08T16:47:29Z</time>
      </trkpt>
      <trkpt lat="43.72582" lon="7.10826">
        <ele>319.68</ele>
        <time>2016-10-08T16:47:31Z</time>
      </trkpt>
      <trkpt lat="43.72591" lon="7.10804">
        <ele>321.08</ele>
        <time>2016-10-08T16:47:33Z</time>
      </trkpt>
      <trkpt lat="43.72598" lon="7.10776">
        <ele>322.68</ele>
        <time>2016-10-08T16:47:35Z</time>
      </trkpt>
      <trkpt lat="43.72608" lon="7.10749">
        <ele>321.33</ele>
        <time>2016-10-08T16:47:37Z</time>
      </trkpt>
      <trkpt lat="43.72618" lon="7.1072">
        <ele>320.99</ele>
        <time>2016-10-08T16:47:39Z</time>
      </trkpt>
      <trkpt lat="43.72629" lon="7.10697">
        <ele>320.91</ele>
        <time>2016-10-08T16:47:41Z</time>
      </trkpt>
      <trkpt lat="43.72643" lon="7.10676">
        <ele>320.89</ele>
        <time>2016-10-08T16:47:43Z</time>
      </trkpt>
      <trkpt lat="43.72657" lon="7.10654">
        <ele>320.63</ele>
        <time>2016-10-08T16:47:45Z</time>
      </trkpt>
      <trkpt lat="43.72667" lon="7.10633">
        <ele>321.06</ele>
        <time>2016-10-08T16:47:48Z</time>
      </trkpt>
      <trkpt lat="43.72669" lon="7.10601">
        <ele>321.11</ele>
        <time>2016-10-08T16:47:51Z</time>
      </trkpt>
      <trkpt lat="43.72661" lon="7.10571">
        <ele>320.24</ele>
        <time>2016-10-08T16:47:54Z</time>
      </trkpt>
      <trkpt lat="43.72648" lon="7.10544">
        <ele>319.13</ele>
        <time>2016-10-08T16:47:57Z</time>
      </trkpt>
      <trkpt lat="43.72624" lon="7.10559">
        <ele>317.5</ele>
        <time>2016-10-08T16:48:00Z</time>
      </trkpt>
      <trkpt lat="43.72604" lon="7.10572">
        <ele>316.29</ele>
        <time>2016-10-08T16:48:02Z</time>
      </trkpt>
      <trkpt lat="43.72586" lon="7.10584">
        <ele>315.48</ele>
        <time>2016-10-08T16:48:04Z</time>
      </trkpt>
      <trkpt lat="43.7257" lon="7.10599">
        <ele>316.28</ele>
        <time>2016-10-08T16:48:06Z</time>
      </trkpt>
      <trkpt lat="43.72548" lon="7.10614">
        <ele>316.73</ele>
        <time>2016-10-08T16:48:08Z</time>
      </trkpt>
      <trkpt lat="43.72525" lon="7.10644">
        <ele>317.45</ele>
        <time>2016-10-08T16:48:11Z</time>
      </trkpt>
      <trkpt lat="43.7251" lon="7.10664">
        <ele>319.27</ele>
        <time>2016-10-08T16:48:13Z</time>
      </trkpt>
      <trkpt lat="43.72494" lon="7.10679">
        <ele>319.48</ele>
        <time>2016-10-08T16:48:15Z</time>
      </trkpt>
      <trkpt lat="43.72478" lon="7.10698">
        <ele>321.29</ele>
        <time>2016-10-08T16:48:18Z</time>
      </trkpt>
      <trkpt lat="43.72461" lon="7.10706">
        <ele>322.59</ele>
        <time>2016-10-08T16:48:22Z</time>
      </trkpt>
      <trkpt lat="43.7244" lon="7.10693">
        <ele>325.61</ele>
        <time>2016-10-08T16:48:27Z</time>
      </trkpt>
      <trkpt lat="43.72433" lon="7.10666">
        <ele>324.68</ele>
        <time>2016-10-08T16:48:31Z</time>
      </trkpt>
      <trkpt lat="43.72423" lon="7.10644">
        <ele>325.56</ele>
        <time>2016-10-08T16:48:34Z</time>
      </trkpt>
      <trkpt lat="43.72415" lon="7.10613">
        <ele>324.55</ele>
        <time>2016-10-08T16:48:38Z</time>
      </trkpt>
      <trkpt lat="43.72406" lon="7.10584">
        <ele>323.8</ele>
        <time>2016-10-08T16:48:41Z</time>
      </trkpt>
      <trkpt lat="43.72395" lon="7.10563">
        <ele>322.7</ele>
        <time>2016-10-08T16:48:44Z</time>
      </trkpt>
      <trkpt lat="43.72373" lon="7.10565">
        <ele>320.87</ele>
        <time>2016-10-08T16:48:48Z</time>
      </trkpt>
      <trkpt lat="43.72354" lon="7.10568">
        <ele>319.59</ele>
        <time>2016-10-08T16:48:51Z</time>
      </trkpt>
      <trkpt lat="43.72337" lon="7.10592">
        <ele>320.43</ele>
        <time>2016-10-08T16:48:54Z</time>
      </trkpt>
      <trkpt lat="43.72331" lon="7.10617">
        <ele>321.27</ele>
        <time>2016-10-08T16:48:56Z</time>
      </trkpt>
      <trkpt lat="43.72328" lon="7.10654">
        <ele>321.26</ele>
        <time>2016-10-08T16:48:59Z</time>
      </trkpt>
      <trkpt lat="43.72324" lon="7.10685">
        <ele>321.01</ele>
        <time>2016-10-08T16:49:02Z</time>
      </trkpt>
      <trkpt lat="43.72314" lon="7.10711">
        <ele>318.63</ele>
        <time>2016-10-08T16:49:08Z</time>
      </trkpt>
      <trkpt lat="43.72293" lon="7.10721">
        <ele>316.3</ele>
        <time>2016-10-08T16:49:22Z</time>
      </trkpt>
      <trkpt lat="43.72287" lon="7.10751">
        <ele>312.72</ele>
        <time>2016-10-08T16:49:26Z</time>
      </trkpt>
      <trkpt lat="43.7227" lon="7.10776">
        <ele>310.75</ele>
        <time>2016-10-08T16:49:30Z</time>
      </trkpt>
      <trkpt lat="43.72252" lon="7.10799">
        <ele>333.82</ele>
        <time>2016-10-08T16:49:33Z</time>
      </trkpt>
      <trkpt lat="43.72239" lon="7.10816">
        <ele>329.62</ele>
        <time>2016-10-08T16:49:35Z</time>
      </trkpt>
      <trkpt lat="43.72217" lon="7.10838">
        <ele>321.93</ele>
        <time>2016-10-08T16:49:38Z</time>
      </trkpt>
      <trkpt lat="43.72203" lon="7.10855">
        <ele>318.39</ele>
        <time>2016-10-08T16:49:40Z</time>
      </trkpt>
      <trkpt lat="43.72189" lon="7.10872">
        <ele>315.51</ele>
        <time>2016-10-08T16:49:42Z</time>
      </trkpt>
      <trkpt lat="43.72172" lon="7.10888">
        <ele>311.79</ele>
        <time>2016-10-08T16:49:44Z</time>
      </trkpt>
      <trkpt lat="43.72157" lon="7.10914">
        <ele>307.33</ele>
        <time>2016-10-08T16:49:48Z</time>
      </trkpt>
      <trkpt lat="43.72145" lon="7.10937">
        <ele>302.9</ele>
        <time>2016-10-08T16:49:51Z</time>
      </trkpt>
      <trkpt lat="43.72129" lon="7.10963">
        <ele>299.09</ele>
        <time>2016-10-08T16:49:54Z</time>
      </trkpt>
      <trkpt lat="43.72115" lon="7.10995">
        <ele>295.49</ele>
        <time>2016-10-08T16:49:57Z</time>
      </trkpt>
      <trkpt lat="43.72106" lon="7.11017">
        <ele>292.03</ele>
        <time>2016-10-08T16:49:59Z</time>
      </trkpt>
      <trkpt lat="43.72094" lon="7.11042">
        <ele>289.67</ele>
        <time>2016-10-08T16:50:01Z</time>
      </trkpt>
      <trkpt lat="43.72078" lon="7.11069">
        <ele>288.33</ele>
        <time>2016-10-08T16:50:03Z</time>
      </trkpt>
      <trkpt lat="43.72062" lon="7.11093">
        <ele>287.49</ele>
        <time>2016-10-08T16:50:05Z</time>
      </trkpt>
      <trkpt lat="43.72046" lon="7.11124">
        <ele>287.53</ele>
        <time>2016-10-08T16:50:07Z</time>
      </trkpt>
      <trkpt lat="43.72028" lon="7.11151">
        <ele>286.79</ele>
        <time>2016-10-08T16:50:09Z</time>
      </trkpt>
      <trkpt lat="43.72008" lon="7.1118">
        <ele>286.11</ele>
        <time>2016-10-08T16:50:11Z</time>
      </trkpt>
      <trkpt lat="43.7199" lon="7.11212">
        <ele>284.94</ele>
        <time>2016-10-08T16:50:13Z</time>
      </trkpt>
      <trkpt lat="43.71973" lon="7.11247">
        <ele>283.65</ele>
        <time>2016-10-08T16:50:15Z</time>
      </trkpt>
      <trkpt lat="43.71959" lon="7.1128">
        <ele>282.82</ele>
        <time>2016-10-08T16:50:17Z</time>
      </trkpt>
      <trkpt lat="43.71946" lon="7.1131">
        <ele>283.12</ele>
        <time>2016-10-08T16:50:19Z</time>
      </trkpt>
      <trkpt lat="43.71929" lon="7.11336">
        <ele>281.69</ele>
        <time>2016-10-08T16:50:21Z</time>
      </trkpt>
      <trkpt lat="43.71905" lon="7.11359">
        <ele>279.58</ele>
        <time>2016-10-08T16:50:23Z</time>
      </trkpt>
      <trkpt lat="43.71874" lon="7.11369">
        <ele>276.06</ele>
        <time>2016-10-08T16:50:25Z</time>
      </trkpt>
      <trkpt lat="43.71843" lon="7.11367">
        <ele>275.68</ele>
        <time>2016-10-08T16:50:27Z</time>
      </trkpt>
      <trkpt lat="43.7181" lon="7.11366">
        <ele>274.33</ele>
        <time>2016-10-08T16:50:29Z</time>
      </trkpt>
      <trkpt lat="43.71777" lon="7.11369">
        <ele>271.99</ele>
        <time>2016-10-08T16:50:31Z</time>
      </trkpt>
      <trkpt lat="43.71758" lon="7.11373">
        <ele>270.77</ele>
        <time>2016-10-08T16:50:32Z</time>
      </trkpt>
      <trkpt lat="43.71728" lon="7.11387">
        <ele>267.85</ele>
        <time>2016-10-08T16:50:34Z</time>
      </trkpt>
      <trkpt lat="43.71697" lon="7.11407">
        <ele>265.37</ele>
        <time>2016-10-08T16:50:36Z</time>
      </trkpt>
      <trkpt lat="43.71671" lon="7.11429">
        <ele>262.75</ele>
        <time>2016-10-08T16:50:38Z</time>
      </trkpt>
      <trkpt lat="43.71645" lon="7.11454">
        <ele>259.1</ele>
        <time>2016-10-08T16:50:40Z</time>
      </trkpt>
      <trkpt lat="43.71622" lon="7.11483">
        <ele>256.69</ele>
        <time>2016-10-08T16:50:42Z</time>
      </trkpt>
      <trkpt lat="43.71598" lon="7.11516">
        <ele>255.83</ele>
        <time>2016-10-08T16:50:44Z</time>
      </trkpt>
      <trkpt lat="43.71574" lon="7.11547">
        <ele>270.62</ele>
        <time>2016-10-08T16:50:46Z</time>
      </trkpt>
      <trkpt lat="43.71557" lon="7.11571">
        <ele>273.57</ele>
        <time>2016-10-08T16:50:48Z</time>
      </trkpt>
      <trkpt lat="43.71543" lon="7.11599">
        <ele>259.55</ele>
        <time>2016-10-08T16:50:51Z</time>
      </trkpt>
      <trkpt lat="43.71526" lon="7.11616">
        <ele>249.8</ele>
        <time>2016-10-08T16:50:55Z</time>
      </trkpt>
      <trkpt lat="43.71513" lon="7.11644">
        <ele>244.83</ele>
        <time>2016-10-08T16:50:58Z</time>
      </trkpt>
      <trkpt lat="43.7152" lon="7.11671">
        <ele>241.87</ele>
        <time>2016-10-08T16:51:00Z</time>
      </trkpt>
      <trkpt lat="43.71522" lon="7.11702">
        <ele>239.63</ele>
        <time>2016-10-08T16:51:02Z</time>
      </trkpt>
      <trkpt lat="43.71516" lon="7.11736">
        <ele>237.07</ele>
        <time>2016-10-08T16:51:04Z</time>
      </trkpt>
      <trkpt lat="43.71508" lon="7.11765">
        <ele>234.93</ele>
        <time>2016-10-08T16:51:06Z</time>
      </trkpt>
      <trkpt lat="43.71494" lon="7.11795">
        <ele>232.39</ele>
        <time>2016-10-08T16:51:08Z</time>
      </trkpt>
      <trkpt lat="43.71474" lon="7.11824">
        <ele>230.51</ele>
        <time>2016-10-08T16:51:10Z</time>
      </trkpt>
      <trkpt lat="43.71453" lon="7.11851">
        <ele>228.54</ele>
        <time>2016-10-08T16:51:12Z</time>
      </trkpt>
      <trkpt lat="43.71436" lon="7.11881">
        <ele>226.8</ele>
        <time>2016-10-08T16:51:14Z</time>
      </trkpt>
      <trkpt lat="43.71422" lon="7.11919">
        <ele>223.36</ele>
        <time>2016-10-08T16:51:16Z</time>
      </trkpt>
      <trkpt lat="43.71406" lon="7.11957">
        <ele>220</ele>
        <time>2016-10-08T16:51:18Z</time>
      </trkpt>
      <trkpt lat="43.71386" lon="7.11993">
        <ele>217.91</ele>
        <time>2016-10-08T16:51:20Z</time>
      </trkpt>
      <trkpt lat="43.71367" lon="7.12024">
        <ele>216.14</ele>
        <time>2016-10-08T16:51:22Z</time>
      </trkpt>
      <trkpt lat="43.71344" lon="7.1206">
        <ele>214.95</ele>
        <time>2016-10-08T16:51:24Z</time>
      </trkpt>
      <trkpt lat="43.71325" lon="7.12101">
        <ele>215.4</ele>
        <time>2016-10-08T16:51:26Z</time>
      </trkpt>
      <trkpt lat="43.71317" lon="7.12128">
        <ele>214.26</ele>
        <time>2016-10-08T16:51:28Z</time>
      </trkpt>
      <trkpt lat="43.71303" lon="7.12161">
        <ele>213.73</ele>
        <time>2016-10-08T16:51:30Z</time>
      </trkpt>
      <trkpt lat="43.71288" lon="7.12193">
        <ele>209.84</ele>
        <time>2016-10-08T16:51:32Z</time>
      </trkpt>
      <trkpt lat="43.71273" lon="7.1223">
        <ele>204.87</ele>
        <time>2016-10-08T16:51:34Z</time>
      </trkpt>
      <trkpt lat="43.71264" lon="7.12269">
        <ele>199.13</ele>
        <time>2016-10-08T16:51:36Z</time>
      </trkpt>
      <trkpt lat="43.71258" lon="7.12306">
        <ele>195.69</ele>
        <time>2016-10-08T16:51:38Z</time>
      </trkpt>
      <trkpt lat="43.71255" lon="7.12347">
        <ele>194.33</ele>
        <time>2016-10-08T16:51:40Z</time>
      </trkpt>
      <trkpt lat="43.71253" lon="7.12387">
        <ele>192.49</ele>
        <time>2016-10-08T16:51:42Z</time>
      </trkpt>
      <trkpt lat="43.71251" lon="7.12425">
        <ele>190.53</ele>
        <time>2016-10-08T16:51:44Z</time>
      </trkpt>
      <trkpt lat="43.71236" lon="7.12455">
        <ele>186.79</ele>
        <time>2016-10-08T16:51:46Z</time>
      </trkpt>
      <trkpt lat="43.71215" lon="7.12479">
        <ele>185.11</ele>
        <time>2016-10-08T16:51:48Z</time>
      </trkpt>
      <trkpt lat="43.71187" lon="7.12497">
        <ele>183.19</ele>
        <time>2016-10-08T16:51:50Z</time>
      </trkpt>
      <trkpt lat="43.71161" lon="7.12514">
        <ele>182.21</ele>
        <time>2016-10-08T16:51:52Z</time>
      </trkpt>
      <trkpt lat="43.71137" lon="7.12531">
        <ele>181.21</ele>
        <time>2016-10-08T16:51:54Z</time>
      </trkpt>
      <trkpt lat="43.71115" lon="7.12548">
        <ele>178.71</ele>
        <time>2016-10-08T16:51:56Z</time>
      </trkpt>
      <trkpt lat="43.71092" lon="7.12571">
        <ele>177.34</ele>
        <time>2016-10-08T16:51:58Z</time>
      </trkpt>
      <trkpt lat="43.7107" lon="7.12595">
        <ele>176.75</ele>
        <time>2016-10-08T16:52:00Z</time>
      </trkpt>
      <trkpt lat="43.71047" lon="7.12617">
        <ele>175.1</ele>
        <time>2016-10-08T16:52:02Z</time>
      </trkpt>
      <trkpt lat="43.71024" lon="7.12642">
        <ele>173.94</ele>
        <time>2016-10-08T16:52:04Z</time>
      </trkpt>
      <trkpt lat="43.71001" lon="7.12666">
        <ele>173.14</ele>
        <time>2016-10-08T16:52:06Z</time>
      </trkpt>
      <trkpt lat="43.70977" lon="7.12691">
        <ele>172.2</ele>
        <time>2016-10-08T16:52:08Z</time>
      </trkpt>
      <trkpt lat="43.70953" lon="7.12713">
        <ele>170.71</ele>
        <time>2016-10-08T16:52:10Z</time>
      </trkpt>
      <trkpt lat="43.70929" lon="7.12738">
        <ele>170.09</ele>
        <time>2016-10-08T16:52:12Z</time>
      </trkpt>
      <trkpt lat="43.70906" lon="7.12763">
        <ele>170.43</ele>
        <time>2016-10-08T16:52:14Z</time>
      </trkpt>
      <trkpt lat="43.70881" lon="7.12789">
        <ele>175.52</ele>
        <time>2016-10-08T16:52:16Z</time>
      </trkpt>
      <trkpt lat="43.70858" lon="7.12819">
        <ele>174.04</ele>
        <time>2016-10-08T16:52:18Z</time>
      </trkpt>
      <trkpt lat="43.70838" lon="7.12855">
        <ele>171.42</ele>
        <time>2016-10-08T16:52:20Z</time>
      </trkpt>
      <trkpt lat="43.70822" lon="7.12892">
        <ele>168.27</ele>
        <time>2016-10-08T16:52:22Z</time>
      </trkpt>
      <trkpt lat="43.70809" lon="7.12931">
        <ele>166.48</ele>
        <time>2016-10-08T16:52:24Z</time>
      </trkpt>
      <trkpt lat="43.70798" lon="7.12965">
        <ele>165.28</ele>
        <time>2016-10-08T16:52:26Z</time>
      </trkpt>
      <trkpt lat="43.70785" lon="7.13">
        <ele>165.48</ele>
        <time>2016-10-08T16:52:28Z</time>
      </trkpt>
      <trkpt lat="43.70775" lon="7.13032">
        <ele>165.53</ele>
        <time>2016-10-08T16:52:30Z</time>
      </trkpt>
      <trkpt lat="43.70767" lon="7.13061">
        <ele>166.79</ele>
        <time>2016-10-08T16:52:32Z</time>
      </trkpt>
      <trkpt lat="43.70758" lon="7.13089">
        <ele>167.95</ele>
        <time>2016-10-08T16:52:35Z</time>
      </trkpt>
      <trkpt lat="43.70742" lon="7.13111">
        <ele>167.97</ele>
        <time>2016-10-08T16:52:38Z</time>
      </trkpt>
      <trkpt lat="43.70729" lon="7.13144">
        <ele>167.48</ele>
        <time>2016-10-08T16:52:41Z</time>
      </trkpt>
      <trkpt lat="43.7071" lon="7.13165">
        <ele>167.53</ele>
        <time>2016-10-08T16:52:43Z</time>
      </trkpt>
      <trkpt lat="43.70688" lon="7.13183">
        <ele>167.79</ele>
        <time>2016-10-08T16:52:45Z</time>
      </trkpt>
      <trkpt lat="43.70666" lon="7.132">
        <ele>167.86</ele>
        <time>2016-10-08T16:52:47Z</time>
      </trkpt>
      <trkpt lat="43.7064" lon="7.13215">
        <ele>168.38</ele>
        <time>2016-10-08T16:52:49Z</time>
      </trkpt>
      <trkpt lat="43.70614" lon="7.1323">
        <ele>168.5</ele>
        <time>2016-10-08T16:52:51Z</time>
      </trkpt>
      <trkpt lat="43.70588" lon="7.13244">
        <ele>168.54</ele>
        <time>2016-10-08T16:52:53Z</time>
      </trkpt>
      <trkpt lat="43.70563" lon="7.13258">
        <ele>169.3</ele>
        <time>2016-10-08T16:52:55Z</time>
      </trkpt>
      <trkpt lat="43.70535" lon="7.13274">
        <ele>169.48</ele>
        <time>2016-10-08T16:52:57Z</time>
      </trkpt>
      <trkpt lat="43.70509" lon="7.1329">
        <ele>170.78</ele>
        <time>2016-10-08T16:52:59Z</time>
      </trkpt>
      <trkpt lat="43.70481" lon="7.13306">
        <ele>170.61</ele>
        <time>2016-10-08T16:53:01Z</time>
      </trkpt>
      <trkpt lat="43.70461" lon="7.13319">
        <ele>172.31</ele>
        <time>2016-10-08T16:53:03Z</time>
      </trkpt>
      <trkpt lat="43.70443" lon="7.13324">
        <ele>171.43</ele>
        <time>2016-10-08T16:53:04Z</time>
      </trkpt>
      <trkpt lat="43.70414" lon="7.13327">
        <ele>169.52</ele>
        <time>2016-10-08T16:53:06Z</time>
      </trkpt>
      <trkpt lat="43.70387" lon="7.13318">
        <ele>169.29</ele>
        <time>2016-10-08T16:53:08Z</time>
      </trkpt>
      <trkpt lat="43.70362" lon="7.133">
        <ele>169.98</ele>
        <time>2016-10-08T16:53:10Z</time>
      </trkpt>
      <trkpt lat="43.70338" lon="7.13277">
        <ele>170.91</ele>
        <time>2016-10-08T16:53:12Z</time>
      </trkpt>
      <trkpt lat="43.70316" lon="7.13256">
        <ele>172.64</ele>
        <time>2016-10-08T16:53:14Z</time>
      </trkpt>
      <trkpt lat="43.70292" lon="7.13242">
        <ele>174.07</ele>
        <time>2016-10-08T16:53:16Z</time>
      </trkpt>
      <trkpt lat="43.70265" lon="7.13237">
        <ele>174.93</ele>
        <time>2016-10-08T16:53:18Z</time>
      </trkpt>
      <trkpt lat="43.70235" lon="7.13238">
        <ele>175.39</ele>
        <time>2016-10-08T16:53:20Z</time>
      </trkpt>
      <trkpt lat="43.70206" lon="7.13236">
        <ele>175.51</ele>
        <time>2016-10-08T16:53:22Z</time>
      </trkpt>
      <trkpt lat="43.70181" lon="7.13224">
        <ele>174.54</ele>
        <time>2016-10-08T16:53:24Z</time>
      </trkpt>
      <trkpt lat="43.70158" lon="7.13206">
        <ele>174.05</ele>
        <time>2016-10-08T16:53:26Z</time>
      </trkpt>
      <trkpt lat="43.7014" lon="7.13182">
        <ele>175.42</ele>
        <time>2016-10-08T16:53:28Z</time>
      </trkpt>
      <trkpt lat="43.70124" lon="7.13162">
        <ele>176.52</ele>
        <time>2016-10-08T16:53:30Z</time>
      </trkpt>
      <trkpt lat="43.70112" lon="7.13138">
        <ele>175.86</ele>
        <time>2016-10-08T16:53:34Z</time>
      </trkpt>
      <trkpt lat="43.70092" lon="7.13116">
        <ele>174.34</ele>
        <time>2016-10-08T16:53:37Z</time>
      </trkpt>
      <trkpt lat="43.70074" lon="7.13094">
        <ele>173.5</ele>
        <time>2016-10-08T16:53:39Z</time>
      </trkpt>
      <trkpt lat="43.70057" lon="7.13069">
        <ele>172.78</ele>
        <time>2016-10-08T16:53:41Z</time>
      </trkpt>
      <trkpt lat="43.7004" lon="7.13044">
        <ele>172.11</ele>
        <time>2016-10-08T16:53:43Z</time>
      </trkpt>
      <trkpt lat="43.70022" lon="7.13018">
        <ele>170.94</ele>
        <time>2016-10-08T16:53:45Z</time>
      </trkpt>
      <trkpt lat="43.70003" lon="7.12996">
        <ele>169.4</ele>
        <time>2016-10-08T16:53:47Z</time>
      </trkpt>
      <trkpt lat="43.69979" lon="7.12983">
        <ele>167.51</ele>
        <time>2016-10-08T16:53:49Z</time>
      </trkpt>
      <trkpt lat="43.69952" lon="7.12981">
        <ele>167.29</ele>
        <time>2016-10-08T16:53:51Z</time>
      </trkpt>
      <trkpt lat="43.69925" lon="7.12988">
        <ele>165.48</ele>
        <time>2016-10-08T16:53:53Z</time>
      </trkpt>
      <trkpt lat="43.69897" lon="7.12995">
        <ele>164.78</ele>
        <time>2016-10-08T16:53:55Z</time>
      </trkpt>
      <trkpt lat="43.69869" lon="7.12999">
        <ele>162.61</ele>
        <time>2016-10-08T16:53:57Z</time>
      </trkpt>
      <trkpt lat="43.69843" lon="7.12995">
        <ele>160.31</ele>
        <time>2016-10-08T16:53:59Z</time>
      </trkpt>
      <trkpt lat="43.69814" lon="7.12989">
        <ele>158.99</ele>
        <time>2016-10-08T16:54:01Z</time>
      </trkpt>
      <trkpt lat="43.69785" lon="7.12983">
        <ele>158.16</ele>
        <time>2016-10-08T16:54:03Z</time>
      </trkpt>
      <trkpt lat="43.69756" lon="7.12987">
        <ele>156.45</ele>
        <time>2016-10-08T16:54:05Z</time>
      </trkpt>
      <trkpt lat="43.69731" lon="7.12996">
        <ele>155.02</ele>
        <time>2016-10-08T16:54:07Z</time>
      </trkpt>
      <trkpt lat="43.69702" lon="7.13002">
        <ele>155.17</ele>
        <time>2016-10-08T16:54:09Z</time>
      </trkpt>
      <trkpt lat="43.69674" lon="7.13001">
        <ele>155.45</ele>
        <time>2016-10-08T16:54:11Z</time>
      </trkpt>
      <trkpt lat="43.69644" lon="7.12999">
        <ele>153.77</ele>
        <time>2016-10-08T16:54:13Z</time>
      </trkpt>
      <trkpt lat="43.69617" lon="7.13002">
        <ele>152.6</ele>
        <time>2016-10-08T16:54:15Z</time>
      </trkpt>
      <trkpt lat="43.6959" lon="7.13007">
        <ele>151.56</ele>
        <time>2016-10-08T16:54:17Z</time>
      </trkpt>
      <trkpt lat="43.69561" lon="7.13011">
        <ele>151.05</ele>
        <time>2016-10-08T16:54:19Z</time>
      </trkpt>
      <trkpt lat="43.69535" lon="7.13014">
        <ele>148.42</ele>
        <time>2016-10-08T16:54:21Z</time>
      </trkpt>
      <trkpt lat="43.69508" lon="7.13017">
        <ele>157.27</ele>
        <time>2016-10-08T16:54:23Z</time>
      </trkpt>
      <trkpt lat="43.69478" lon="7.1302">
        <ele>158.23</ele>
        <time>2016-10-08T16:54:25Z</time>
      </trkpt>
      <trkpt lat="43.69451" lon="7.13024">
        <ele>155.22</ele>
        <time>2016-10-08T16:54:27Z</time>
      </trkpt>
      <trkpt lat="43.69423" lon="7.13027">
        <ele>151.97</ele>
        <time>2016-10-08T16:54:29Z</time>
      </trkpt>
      <trkpt lat="43.69398" lon="7.13027">
        <ele>150.15</ele>
        <time>2016-10-08T16:54:31Z</time>
      </trkpt>
      <trkpt lat="43.69369" lon="7.13024">
        <ele>147.7</ele>
        <time>2016-10-08T16:54:33Z</time>
      </trkpt>
      <trkpt lat="43.69338" lon="7.1302">
        <ele>146.84</ele>
        <time>2016-10-08T16:54:35Z</time>
      </trkpt>
      <trkpt lat="43.69311" lon="7.13017">
        <ele>146.12</ele>
        <time>2016-10-08T16:54:37Z</time>
      </trkpt>
      <trkpt lat="43.69284" lon="7.13013">
        <ele>145.19</ele>
        <time>2016-10-08T16:54:39Z</time>
      </trkpt>
      <trkpt lat="43.69259" lon="7.13012">
        <ele>144.21</ele>
        <time>2016-10-08T16:54:41Z</time>
      </trkpt>
      <trkpt lat="43.69232" lon="7.13007">
        <ele>143.46</ele>
        <time>2016-10-08T16:54:43Z</time>
      </trkpt>
      <trkpt lat="43.69204" lon="7.13004">
        <ele>142.28</ele>
        <time>2016-10-08T16:54:45Z</time>
      </trkpt>
      <trkpt lat="43.69181" lon="7.13004">
        <ele>140.73</ele>
        <time>2016-10-08T16:54:47Z</time>
      </trkpt>
      <trkpt lat="43.69156" lon="7.13005">
        <ele>139.34</ele>
        <time>2016-10-08T16:54:49Z</time>
      </trkpt>
      <trkpt lat="43.6913" lon="7.13018">
        <ele>138.75</ele>
        <time>2016-10-08T16:54:51Z</time>
      </trkpt>
      <trkpt lat="43.69106" lon="7.13035">
        <ele>136.6</ele>
        <time>2016-10-08T16:54:53Z</time>
      </trkpt>
      <trkpt lat="43.69082" lon="7.13052">
        <ele>136.81</ele>
        <time>2016-10-08T16:54:55Z</time>
      </trkpt>
      <trkpt lat="43.69057" lon="7.1307">
        <ele>136.86</ele>
        <time>2016-10-08T16:54:57Z</time>
      </trkpt>
      <trkpt lat="43.6903" lon="7.13086">
        <ele>136.63</ele>
        <time>2016-10-08T16:54:59Z</time>
      </trkpt>
      <trkpt lat="43.69004" lon="7.13098">
        <ele>136.82</ele>
        <time>2016-10-08T16:55:01Z</time>
      </trkpt>
      <trkpt lat="43.68975" lon="7.131">
        <ele>136.12</ele>
        <time>2016-10-08T16:55:03Z</time>
      </trkpt>
      <trkpt lat="43.68945" lon="7.13092">
        <ele>134.44</ele>
        <time>2016-10-08T16:55:05Z</time>
      </trkpt>
      <trkpt lat="43.6892" lon="7.13075">
        <ele>133.27</ele>
        <time>2016-10-08T16:55:07Z</time>
      </trkpt>
      <trkpt lat="43.68896" lon="7.13057">
        <ele>132.73</ele>
        <time>2016-10-08T16:55:09Z</time>
      </trkpt>
      <trkpt lat="43.68871" lon="7.1304">
        <ele>132.09</ele>
        <time>2016-10-08T16:55:11Z</time>
      </trkpt>
      <trkpt lat="43.68844" lon="7.13032">
        <ele>129.18</ele>
        <time>2016-10-08T16:55:13Z</time>
      </trkpt>
      <trkpt lat="43.68815" lon="7.13028">
        <ele>127.71</ele>
        <time>2016-10-08T16:55:15Z</time>
      </trkpt>
      <trkpt lat="43.68785" lon="7.13024">
        <ele>126.09</ele>
        <time>2016-10-08T16:55:17Z</time>
      </trkpt>
      <trkpt lat="43.68756" lon="7.13019">
        <ele>123.68</ele>
        <time>2016-10-08T16:55:19Z</time>
      </trkpt>
      <trkpt lat="43.68727" lon="7.13018">
        <ele>122.58</ele>
        <time>2016-10-08T16:55:21Z</time>
      </trkpt>
      <trkpt lat="43.687" lon="7.13016">
        <ele>121.81</ele>
        <time>2016-10-08T16:55:23Z</time>
      </trkpt>
      <trkpt lat="43.68675" lon="7.13013">
        <ele>121.61</ele>
        <time>2016-10-08T16:55:25Z</time>
      </trkpt>
      <trkpt lat="43.68655" lon="7.13009">
        <ele>121.56</ele>
        <time>2016-10-08T16:55:27Z</time>
      </trkpt>
      <trkpt lat="43.68629" lon="7.13009">
        <ele>121.68</ele>
        <time>2016-10-08T16:55:30Z</time>
      </trkpt>
      <trkpt lat="43.68604" lon="7.13004">
        <ele>122.31</ele>
        <time>2016-10-08T16:55:33Z</time>
      </trkpt>
      <trkpt lat="43.68581" lon="7.12996">
        <ele>118.52</ele>
        <time>2016-10-08T16:55:36Z</time>
      </trkpt>
      <trkpt lat="43.68563" lon="7.12982">
        <ele>117.04</ele>
        <time>2016-10-08T16:55:38Z</time>
      </trkpt>
      <trkpt lat="43.68541" lon="7.12975">
        <ele>118.67</ele>
        <time>2016-10-08T16:55:40Z</time>
      </trkpt>
      <trkpt lat="43.68517" lon="7.12967">
        <ele>118.83</ele>
        <time>2016-10-08T16:55:42Z</time>
      </trkpt>
      <trkpt lat="43.68494" lon="7.12959">
        <ele>118.12</ele>
        <time>2016-10-08T16:55:44Z</time>
      </trkpt>
      <trkpt lat="43.6847" lon="7.12942">
        <ele>114.69</ele>
        <time>2016-10-08T16:55:46Z</time>
      </trkpt>
      <trkpt lat="43.68441" lon="7.12926">
        <ele>110.58</ele>
        <time>2016-10-08T16:55:48Z</time>
      </trkpt>
      <trkpt lat="43.68411" lon="7.12913">
        <ele>108.81</ele>
        <time>2016-10-08T16:55:50Z</time>
      </trkpt>
      <trkpt lat="43.68383" lon="7.12902">
        <ele>108.61</ele>
        <time>2016-10-08T16:55:52Z</time>
      </trkpt>
      <trkpt lat="43.68345" lon="7.12894">
        <ele>106.31</ele>
        <time>2016-10-08T16:55:54Z</time>
      </trkpt>
      <trkpt lat="43.68326" lon="7.1289">
        <ele>103.43</ele>
        <time>2016-10-08T16:55:55Z</time>
      </trkpt>
      <trkpt lat="43.68292" lon="7.12888">
        <ele>97.27</ele>
        <time>2016-10-08T16:55:57Z</time>
      </trkpt>
      <trkpt lat="43.68261" lon="7.12884">
        <ele>93.23</ele>
        <time>2016-10-08T16:55:59Z</time>
      </trkpt>
      <trkpt lat="43.68243" lon="7.12881">
        <ele>91.89</ele>
        <time>2016-10-08T16:56:00Z</time>
      </trkpt>
      <trkpt lat="43.68209" lon="7.12877">
        <ele>89.38</ele>
        <time>2016-10-08T16:56:02Z</time>
      </trkpt>
      <trkpt lat="43.68183" lon="7.12875">
        <ele>88.26</ele>
        <time>2016-10-08T16:56:04Z</time>
      </trkpt>
      <trkpt lat="43.68156" lon="7.12873">
        <ele>86.73</ele>
        <time>2016-10-08T16:56:06Z</time>
      </trkpt>
      <trkpt lat="43.68127" lon="7.12871">
        <ele>82.34</ele>
        <time>2016-10-08T16:56:08Z</time>
      </trkpt>
      <trkpt lat="43.681" lon="7.12875">
        <ele>78</ele>
        <time>2016-10-08T16:56:10Z</time>
      </trkpt>
      <trkpt lat="43.68078" lon="7.12874">
        <ele>76.16</ele>
        <time>2016-10-08T16:56:12Z</time>
      </trkpt>
      <trkpt lat="43.68054" lon="7.12872">
        <ele>75.2</ele>
        <time>2016-10-08T16:56:14Z</time>
      </trkpt>
      <trkpt lat="43.68026" lon="7.12873">
        <ele>73.96</ele>
        <time>2016-10-08T16:56:16Z</time>
      </trkpt>
      <trkpt lat="43.67995" lon="7.12875">
        <ele>73.15</ele>
        <time>2016-10-08T16:56:18Z</time>
      </trkpt>
      <trkpt lat="43.67967" lon="7.12875">
        <ele>70.95</ele>
        <time>2016-10-08T16:56:20Z</time>
      </trkpt>
      <trkpt lat="43.67938" lon="7.12869">
        <ele>68.4</ele>
        <time>2016-10-08T16:56:22Z</time>
      </trkpt>
      <trkpt lat="43.67908" lon="7.12861">
        <ele>65.76</ele>
        <time>2016-10-08T16:56:24Z</time>
      </trkpt>
      <trkpt lat="43.67884" lon="7.1284">
        <ele>63.6</ele>
        <time>2016-10-08T16:56:26Z</time>
      </trkpt>
      <trkpt lat="43.67861" lon="7.12821">
        <ele>63.06</ele>
        <time>2016-10-08T16:56:28Z</time>
      </trkpt>
      <trkpt lat="43.67846" lon="7.12803">
        <ele>62.3</ele>
        <time>2016-10-08T16:56:29Z</time>
      </trkpt>
      <trkpt lat="43.67826" lon="7.12776">
        <ele>60.49</ele>
        <time>2016-10-08T16:56:31Z</time>
      </trkpt>
      <trkpt lat="43.67798" lon="7.12759">
        <ele>55.53</ele>
        <time>2016-10-08T16:56:33Z</time>
      </trkpt>
      <trkpt lat="43.67781" lon="7.12751">
        <ele>54.04</ele>
        <time>2016-10-08T16:56:34Z</time>
      </trkpt>
      <trkpt lat="43.67748" lon="7.12742">
        <ele>51.67</ele>
        <time>2016-10-08T16:56:36Z</time>
      </trkpt>
      <trkpt lat="43.67715" lon="7.12738">
        <ele>49.58</ele>
        <time>2016-10-08T16:56:38Z</time>
      </trkpt>
      <trkpt lat="43.67679" lon="7.12735">
        <ele>46.81</ele>
        <time>2016-10-08T16:56:40Z</time>
      </trkpt>
      <trkpt lat="43.67659" lon="7.12739">
        <ele>45.68</ele>
        <time>2016-10-08T16:56:41Z</time>
      </trkpt>
      <trkpt lat="43.67627" lon="7.12732">
        <ele>43.08</ele>
        <time>2016-10-08T16:56:43Z</time>
      </trkpt>
      <trkpt lat="43.67591" lon="7.12729">
        <ele>42.18</ele>
        <time>2016-10-08T16:56:45Z</time>
      </trkpt>
      <trkpt lat="43.6756" lon="7.12726">
        <ele>40.46</ele>
        <time>2016-10-08T16:56:47Z</time>
      </trkpt>
      <trkpt lat="43.6754" lon="7.12722">
        <ele>39.5</ele>
        <time>2016-10-08T16:56:48Z</time>
      </trkpt>
      <trkpt lat="43.67502" lon="7.12715">
        <ele>39.04</ele>
        <time>2016-10-08T16:56:50Z</time>
      </trkpt>
      <trkpt lat="43.67467" lon="7.1271">
        <ele>39.42</ele>
        <time>2016-10-08T16:56:52Z</time>
      </trkpt>
      <trkpt lat="43.67435" lon="7.12704">
        <ele>39.27</ele>
        <time>2016-10-08T16:56:54Z</time>
      </trkpt>
      <trkpt lat="43.67401" lon="7.12699">
        <ele>39.48</ele>
        <time>2016-10-08T16:56:56Z</time>
      </trkpt>
      <trkpt lat="43.67373" lon="7.12689">
        <ele>39.53</ele>
        <time>2016-10-08T16:56:58Z</time>
      </trkpt>
      <trkpt lat="43.67345" lon="7.12677">
        <ele>36.79</ele>
        <time>2016-10-08T16:57:00Z</time>
      </trkpt>
      <trkpt lat="43.67318" lon="7.12667">
        <ele>35.11</ele>
        <time>2016-10-08T16:57:02Z</time>
      </trkpt>
      <trkpt lat="43.67296" lon="7.12654">
        <ele>33.69</ele>
        <time>2016-10-08T16:57:04Z</time>
      </trkpt>
      <trkpt lat="43.6728" lon="7.12639">
        <ele>34.08</ele>
        <time>2016-10-08T16:57:06Z</time>
      </trkpt>
      <trkpt lat="43.6727" lon="7.12615">
        <ele>33.99</ele>
        <time>2016-10-08T16:57:09Z</time>
      </trkpt>
      <trkpt lat="43.67258" lon="7.12597">
        <ele>30.98</ele>
        <time>2016-10-08T16:57:12Z</time>
      </trkpt>
      <trkpt lat="43.67234" lon="7.1261">
        <ele>31.48</ele>
        <time>2016-10-08T16:57:15Z</time>
      </trkpt>
      <trkpt lat="43.67208" lon="7.1261">
        <ele>29.91</ele>
        <time>2016-10-08T16:57:18Z</time>
      </trkpt>
      <trkpt lat="43.67182" lon="7.126">
        <ele>26.34</ele>
        <time>2016-10-08T16:57:21Z</time>
      </trkpt>
      <trkpt lat="43.67161" lon="7.12592">
        <ele>25.75</ele>
        <time>2016-10-08T16:57:23Z</time>
      </trkpt>
      <trkpt lat="43.67143" lon="7.12584">
        <ele>24.85</ele>
        <time>2016-10-08T16:57:25Z</time>
      </trkpt>
      <trkpt lat="43.67116" lon="7.12572">
        <ele>24.59</ele>
        <time>2016-10-08T16:57:28Z</time>
      </trkpt>
      <trkpt lat="43.6709" lon="7.12566">
        <ele>23.18</ele>
        <time>2016-10-08T16:57:31Z</time>
      </trkpt>
      <trkpt lat="43.67068" lon="7.12561">
        <ele>21.88</ele>
        <time>2016-10-08T16:57:34Z</time>
      </trkpt>
      <trkpt lat="43.67051" lon="7.12552">
        <ele>21.59</ele>
        <time>2016-10-08T16:57:37Z</time>
      </trkpt>
      <trkpt lat="43.67036" lon="7.12533">
        <ele>23.52</ele>
        <time>2016-10-08T16:57:43Z</time>
      </trkpt>
      <trkpt lat="43.66726" lon="7.12708">
        <ele>22.92</ele>
        <time>2016-10-08T16:58:29Z</time>
      </trkpt>
      <trkpt lat="43.66707" lon="7.12728">
        <ele>18.22</ele>
        <time>2016-10-08T16:58:32Z</time>
      </trkpt>
      <trkpt lat="43.66689" lon="7.12742">
        <ele>14.51</ele>
        <time>2016-10-08T16:58:35Z</time>
      </trkpt>
      <trkpt lat="43.6667" lon="7.12755">
        <ele>9.92</ele>
        <time>2016-10-08T16:58:38Z</time>
      </trkpt>
      <trkpt lat="43.66649" lon="7.12767">
        <ele>9.47</ele>
        <time>2016-10-08T16:58:41Z</time>
      </trkpt>
      <trkpt lat="43.66632" lon="7.12779">
        <ele>10.23</ele>
        <time>2016-10-08T16:58:45Z</time>
      </trkpt>
      <trkpt lat="43.66616" lon="7.12791">
        <ele>5.77</ele>
        <time>2016-10-08T16:58:52Z</time>
      </trkpt>
      <trkpt lat="43.66595" lon="7.12802">
        <ele>3.46</ele>
        <time>2016-10-08T16:58:57Z</time>
      </trkpt>
      <trkpt lat="43.66578" lon="7.1281">
        <ele>3.79</ele>
        <time>2016-10-08T16:59:00Z</time>
      </trkpt>
      <trkpt lat="43.6656" lon="7.12816">
        <ele>4.33</ele>
        <time>2016-10-08T16:59:03Z</time>
      </trkpt>
      <trkpt lat="43.66542" lon="7.12799">
        <ele>2.53</ele>
        <time>2016-10-08T16:59:07Z</time>
      </trkpt>
      <trkpt lat="43.66527" lon="7.12786">
        <ele>3.17</ele>
        <time>2016-10-08T16:59:10Z</time>
      </trkpt>
      <trkpt lat="43.66509" lon="7.12787">
        <ele>1</ele>
        <time>2016-10-08T16:59:13Z</time>
      </trkpt>
      <trkpt lat="43.66495" lon="7.12806">
        <ele>0.35</ele>
        <time>2016-10-08T16:59:16Z</time>
      </trkpt>
      <trkpt lat="43.66494" lon="7.12834">
        <ele>1.4</ele>
        <time>2016-10-08T16:59:19Z</time>
      </trkpt>
      <trkpt lat="43.66498" lon="7.12864">
        <ele>2.53</ele>
        <time>2016-10-08T16:59:22Z</time>
      </trkpt>
      <trkpt lat="43.66491" lon="7.1289">
        <ele>3.67</ele>
        <time>2016-10-08T16:59:25Z</time>
      </trkpt>
      <trkpt lat="43.66476" lon="7.12913">
        <ele>3.18</ele>
        <time>2016-10-08T16:59:29Z</time>
      </trkpt>
      <trkpt lat="43.6646" lon="7.12936">
        <ele>1.84</ele>
        <time>2016-10-08T16:59:33Z</time>
      </trkpt>
      <trkpt lat="43.66445" lon="7.12955">
        <ele>1.82</ele>
        <time>2016-10-08T16:59:37Z</time>
      </trkpt>
      <trkpt lat="43.66426" lon="7.12969">
        <ele>3.21</ele>
        <time>2016-10-08T16:59:42Z</time>
      </trkpt>
      <trkpt lat="43.66409" lon="7.12983">
        <ele>4.29</ele>
        <time>2016-10-08T16:59:47Z</time>
      </trkpt>
      <trkpt lat="43.66394" lon="7.13003">
        <ele>4.52</ele>
        <time>2016-10-08T16:59:50Z</time>
      </trkpt>
      <trkpt lat="43.6638" lon="7.13026">
        <ele>4.04</ele>
        <time>2016-10-08T16:59:53Z</time>
      </trkpt>
      <trkpt lat="43.66363" lon="7.13044">
        <ele>-0.02</ele>
        <time>2016-10-08T16:59:56Z</time>
      </trkpt>
      <trkpt lat="43.66352" lon="7.13064">
        <ele>-1.88</ele>
        <time>2016-10-08T17:00:01Z</time>
      </trkpt>
      <trkpt lat="43.66334" lon="7.13086">
        <ele>-3.25</ele>
        <time>2016-10-08T17:00:06Z</time>
      </trkpt>
      <trkpt lat="43.66317" lon="7.13107">
        <ele>1.49</ele>
        <time>2016-10-08T17:00:11Z</time>
      </trkpt>
      <trkpt lat="43.663" lon="7.13132">
        <ele>-0.58</ele>
        <time>2016-10-08T17:00:15Z</time>
      </trkpt>
      <trkpt lat="43.66284" lon="7.13148">
        <ele>-2.84</ele>
        <time>2016-10-08T17:00:19Z</time>
      </trkpt>
      <trkpt lat="43.66264" lon="7.13155">
        <ele>-5.21</ele>
        <time>2016-10-08T17:00:28Z</time>
      </trkpt>
      <trkpt lat="43.66246" lon="7.13179">
        <ele>-11.37</ele>
        <time>2016-10-08T17:00:32Z</time>
      </trkpt>
      <trkpt lat="43.6624" lon="7.13202">
        <ele>-13.07</ele>
        <time>2016-10-08T17:00:35Z</time>
      </trkpt>
      <trkpt lat="43.66226" lon="7.13224">
        <ele>-13.03</ele>
        <time>2016-10-08T17:00:38Z</time>
      </trkpt>
      <trkpt lat="43.66203" lon="7.13245">
        <ele>-12.52</ele>
        <time>2016-10-08T17:00:41Z</time>
      </trkpt>
      <trkpt lat="43.66186" lon="7.13276">
        <ele>-13.84</ele>
        <time>2016-10-08T17:00:44Z</time>
      </trkpt>
      <trkpt lat="43.6617" lon="7.13295">
        <ele>-14.3</ele>
        <time>2016-10-08T17:00:46Z</time>
      </trkpt>
      <trkpt lat="43.66155" lon="7.13325">
        <ele>-15.41</ele>
        <time>2016-10-08T17:00:49Z</time>
      </trkpt>
      <trkpt lat="43.66142" lon="7.13348">
        <ele>-15.32</ele>
        <time>2016-10-08T17:00:52Z</time>
      </trkpt>
      <trkpt lat="43.66127" lon="7.13377">
        <ele>-13.19</ele>
        <time>2016-10-08T17:00:55Z</time>
      </trkpt>
      <trkpt lat="43.66113" lon="7.13397">
        <ele>-11.39</ele>
        <time>2016-10-08T17:00:57Z</time>
      </trkpt>
      <trkpt lat="43.66101" lon="7.13419">
        <ele>-10.19</ele>
        <time>2016-10-08T17:00:59Z</time>
      </trkpt>
      <trkpt lat="43.66088" lon="7.1345">
        <ele>-7.92</ele>
        <time>2016-10-08T17:01:02Z</time>
      </trkpt>
      <trkpt lat="43.66077" lon="7.13476">
        <ele>-5.82</ele>
        <time>2016-10-08T17:01:04Z</time>
      </trkpt>
      <trkpt lat="43.66067" lon="7.135">
        <ele>-6.54</ele>
        <time>2016-10-08T17:01:06Z</time>
      </trkpt>
      <trkpt lat="43.66053" lon="7.13532">
        <ele>-7.59</ele>
        <time>2016-10-08T17:01:09Z</time>
      </trkpt>
      <trkpt lat="43.66045" lon="7.13557">
        <ele>-7.24</ele>
        <time>2016-10-08T17:01:11Z</time>
      </trkpt>
      <trkpt lat="43.66036" lon="7.13594">
        <ele>-5.55</ele>
        <time>2016-10-08T17:01:14Z</time>
      </trkpt>
      <trkpt lat="43.6603" lon="7.13623">
        <ele>-7.09</ele>
        <time>2016-10-08T17:01:17Z</time>
      </trkpt>
      <trkpt lat="43.66023" lon="7.13649">
        <ele>-1.17</ele>
        <time>2016-10-08T17:01:25Z</time>
      </trkpt>
      <trkpt lat="43.66018" lon="7.13682">
        <ele>-2.17</ele>
        <time>2016-10-08T17:01:28Z</time>
      </trkpt>
      <trkpt lat="43.66014" lon="7.13707">
        <ele>-2.38</ele>
        <time>2016-10-08T17:01:30Z</time>
      </trkpt>
      <trkpt lat="43.66008" lon="7.13748">
        <ele>-2.44</ele>
        <time>2016-10-08T17:01:33Z</time>
      </trkpt>
      <trkpt lat="43.66006" lon="7.13783">
        <ele>-2.45</ele>
        <time>2016-10-08T17:01:36Z</time>
      </trkpt>
      <trkpt lat="43.66003" lon="7.13818">
        <ele>-4.08</ele>
        <time>2016-10-08T17:01:39Z</time>
      </trkpt>
      <trkpt lat="43.66002" lon="7.13843">
        <ele>-3.86</ele>
        <time>2016-10-08T17:01:41Z</time>
      </trkpt>
      <trkpt lat="43.66001" lon="7.13881">
        <ele>-3.88</ele>
        <time>2016-10-08T17:01:44Z</time>
      </trkpt>
      <trkpt lat="43.66002" lon="7.13907">
        <ele>-3.56</ele>
        <time>2016-10-08T17:01:46Z</time>
      </trkpt>
      <trkpt lat="43.66009" lon="7.13941">
        <ele>-8.97</ele>
        <time>2016-10-08T17:01:49Z</time>
      </trkpt>
      <trkpt lat="43.66008" lon="7.13972">
        <ele>-11.33</ele>
        <time>2016-10-08T17:01:51Z</time>
      </trkpt>
      <trkpt lat="43.66013" lon="7.14007">
        <ele>-15.06</ele>
        <time>2016-10-08T17:01:54Z</time>
      </trkpt>
      <trkpt lat="43.66015" lon="7.14033">
        <ele>-17.1</ele>
        <time>2016-10-08T17:01:56Z</time>
      </trkpt>
      <trkpt lat="43.66018" lon="7.14067">
        <ele>-10.53</ele>
        <time>2016-10-08T17:01:59Z</time>
      </trkpt>
      <trkpt lat="43.66018" lon="7.14102">
        <ele>-8.21</ele>
        <time>2016-10-08T17:02:02Z</time>
      </trkpt>
      <trkpt lat="43.66023" lon="7.1413">
        <ele>-10.14</ele>
        <time>2016-10-08T17:02:04Z</time>
      </trkpt>
      <trkpt lat="43.66026" lon="7.14163">
        <ele>-13.12</ele>
        <time>2016-10-08T17:02:06Z</time>
      </trkpt>
      <trkpt lat="43.66029" lon="7.14194">
        <ele>-13.62</ele>
        <time>2016-10-08T17:02:08Z</time>
      </trkpt>
      <trkpt lat="43.66033" lon="7.14227">
        <ele>-14.99</ele>
        <time>2016-10-08T17:02:10Z</time>
      </trkpt>
      <trkpt lat="43.66037" lon="7.14256">
        <ele>-16.84</ele>
        <time>2016-10-08T17:02:12Z</time>
      </trkpt>
      <trkpt lat="43.6604" lon="7.14286">
        <ele>-16.8</ele>
        <time>2016-10-08T17:02:14Z</time>
      </trkpt>
      <trkpt lat="43.66041" lon="7.14313">
        <ele>-16.54</ele>
        <time>2016-10-08T17:02:16Z</time>
      </trkpt>
      <trkpt lat="43.66042" lon="7.14341">
        <ele>-17.34</ele>
        <time>2016-10-08T17:02:19Z</time>
      </trkpt>
      <trkpt lat="43.66039" lon="7.14367">
        <ele>-17.95</ele>
        <time>2016-10-08T17:02:26Z</time>
      </trkpt>
      <trkpt lat="43.6604" lon="7.14394">
        <ele>-19.23</ele>
        <time>2016-10-08T17:02:30Z</time>
      </trkpt>
      <trkpt lat="43.66059" lon="7.14397">
        <ele>-20.25</ele>
        <time>2016-10-08T17:02:34Z</time>
      </trkpt>
      <trkpt lat="43.66055" lon="7.1437">
        <ele>-22.06</ele>
        <time>2016-10-08T17:02:38Z</time>
      </trkpt>
      <trkpt lat="43.66036" lon="7.14366">
        <ele>-20.65</ele>
        <time>2016-10-08T17:02:41Z</time>
      </trkpt>
      <trkpt lat="43.66021" lon="7.14394">
        <ele>-19.6</ele>
        <time>2016-10-08T17:02:44Z</time>
      </trkpt>
      <trkpt lat="43.66008" lon="7.14412">
        <ele>-18.74</ele>
        <time>2016-10-08T17:02:46Z</time>
      </trkpt>
      <trkpt lat="43.65899" lon="7.14736">
        <ele>-23.1</ele>
        <time>2016-10-08T17:03:19Z</time>
      </trkpt>
      <trkpt lat="43.65885" lon="7.14761">
        <ele>-32.66</ele>
        <time>2016-10-08T17:03:22Z</time>
      </trkpt>
      <trkpt lat="43.65875" lon="7.14785">
        <ele>-39.48</ele>
        <time>2016-10-08T17:03:25Z</time>
      </trkpt>
      <trkpt lat="43.65864" lon="7.14804">
        <ele>-34.01</ele>
        <time>2016-10-08T17:03:38Z</time>
      </trkpt>
      <trkpt lat="43.65855" lon="7.14834">
        <ele>-26.51</ele>
        <time>2016-10-08T17:04:34Z</time>
      </trkpt>
      <trkpt lat="43.65844" lon="7.14867">
        <ele>-27.22</ele>
        <time>2016-10-08T17:04:36Z</time>
      </trkpt>
      <trkpt lat="43.65827" lon="7.14897">
        <ele>-27.89</ele>
        <time>2016-10-08T17:04:38Z</time>
      </trkpt>
      <trkpt lat="43.6582" lon="7.1492">
        <ele>-26.51</ele>
        <time>2016-10-08T17:04:41Z</time>
      </trkpt>
      <trkpt lat="43.65812" lon="7.14944">
        <ele>-23.72</ele>
        <time>2016-10-08T17:04:43Z</time>
      </trkpt>
      <trkpt lat="43.65808" lon="7.14978">
        <ele>-29.77</ele>
        <time>2016-10-08T17:04:45Z</time>
      </trkpt>
      <trkpt lat="43.65803" lon="7.15009">
        <ele>-37.62</ele>
        <time>2016-10-08T17:04:48Z</time>
      </trkpt>
      <trkpt lat="43.65795" lon="7.15038">
        <ele>-38.35</ele>
        <time>2016-10-08T17:04:51Z</time>
      </trkpt>
      <trkpt lat="43.65786" lon="7.15067">
        <ele>-38.44</ele>
        <time>2016-10-08T17:04:54Z</time>
      </trkpt>
      <trkpt lat="43.65772" lon="7.15088">
        <ele>-13.95</ele>
        <time>2016-10-08T17:05:49Z</time>
      </trkpt>
      <trkpt lat="43.65754" lon="7.15117">
        <ele>-14.83</ele>
        <time>2016-10-08T17:05:51Z</time>
      </trkpt>
      <trkpt lat="43.65742" lon="7.15158">
        <ele>-15.8</ele>
        <time>2016-10-08T17:05:53Z</time>
      </trkpt>
      <trkpt lat="43.65734" lon="7.15194">
        <ele>-16.04</ele>
        <time>2016-10-08T17:05:55Z</time>
      </trkpt>
      <trkpt lat="43.65723" lon="7.15225">
        <ele>-15.6</ele>
        <time>2016-10-08T17:05:57Z</time>
      </trkpt>
      <trkpt lat="43.65712" lon="7.15255">
        <ele>-13.74</ele>
        <time>2016-10-08T17:05:59Z</time>
      </trkpt>
      <trkpt lat="43.65703" lon="7.15281">
        <ele>-12.02</ele>
        <time>2016-10-08T17:06:01Z</time>
      </trkpt>
      <trkpt lat="43.65692" lon="7.15309">
        <ele>-12.55</ele>
        <time>2016-10-08T17:06:05Z</time>
      </trkpt>
      <trkpt lat="43.65667" lon="7.15323">
        <ele>-15.96</ele>
        <time>2016-10-08T17:06:08Z</time>
      </trkpt>
      <trkpt lat="43.65647" lon="7.15334">
        <ele>-17.08</ele>
        <time>2016-10-08T17:06:10Z</time>
      </trkpt>
      <trkpt lat="43.65624" lon="7.15348">
        <ele>-18.16</ele>
        <time>2016-10-08T17:06:13Z</time>
      </trkpt>
      <trkpt lat="43.65604" lon="7.15359">
        <ele>-24.09</ele>
        <time>2016-10-08T17:06:24Z</time>
      </trkpt>
      <trkpt lat="43.65588" lon="7.15374">
        <ele>-26.05</ele>
        <time>2016-10-08T17:06:28Z</time>
      </trkpt>
      <trkpt lat="43.65593" lon="7.15409">
        <ele>-23.11</ele>
        <time>2016-10-08T17:06:32Z</time>
      </trkpt>
      <trkpt lat="43.65601" lon="7.15433">
        <ele>-21.28</ele>
        <time>2016-10-08T17:06:35Z</time>
      </trkpt>
      <trkpt lat="43.65609" lon="7.15455">
        <ele>-19.13</ele>
        <time>2016-10-08T17:06:39Z</time>
      </trkpt>
    </trkseg>
  </trk>
</gpx>